NFC6348 SBGL-EDDK
Flight info
| Callsign | NFC6348 |
|---|---|
| Flight time | 10h 53m |
| Altitude | 31000 |
| Route | UTMIP1A UKENU UN857 AKNUT/N0501F330 UN857 BOTNO/N0493F350 UN857 GUNET N857 DEREV/N0485F360 N857 LZR N871 KORAL UG5 SONSO UN871 ADUBI N871 VJF L27 MAR N871 TOPTU DCT ESISI DCT ENUPA DCT RLP DCT ROUSY M624 DIK T856 ERUKI DCT DEPOK DCT |
| Aircraft | B77L/H-SDE1E2E3FGHIJ2J3J4J5M1RWXY/LB1D1 |
Departure
| Time | 2026-04-24 12:30 |
|---|---|
| Airport | Rio Galeão – Tom Jobim International Airport (SBGL) |
Arrival
| Time | 2026-04-24 23:23 |
|---|---|
| Airport | Cologne Bonn Airport (EDDK) |
| Time | Latitude | Longitude | Altitude | Speed | Heading |
|---|---|---|---|---|---|
| 2026-04-24 11:59 | -22.82878 | -43.24363 | 26 ft | 0 kts | 213° |
| 2026-04-24 12:18 | -22.82875 | -43.24361 | 27 ft | 3 kts | 214° |
| 2026-04-24 12:18 | -22.82852 | -43.24344 | 32 ft | 4 kts | 212° |
| 2026-04-24 12:19 | -22.82829 | -43.24330 | 31 ft | 4 kts | 204° |
| 2026-04-24 12:19 | -22.82804 | -43.24320 | 31 ft | 4 kts | 198° |
| 2026-04-24 12:19 | -22.82791 | -43.24315 | 31 ft | 1 kts | 198° |
| 2026-04-24 12:19 | -22.82790 | -43.24315 | 31 ft | 0 kts | 198° |
| 2026-04-24 12:21 | -22.82790 | -43.24314 | 31 ft | 0 kts | 198° |
| 2026-04-24 12:23 | -22.82790 | -43.24315 | 31 ft | 0 kts | 197° |
| 2026-04-24 12:23 | -22.82810 | -43.24306 | 30 ft | 7 kts | 148° |
| 2026-04-24 12:23 | -22.82844 | -43.24269 | 26 ft | 7 kts | 131° |
| 2026-04-24 12:23 | -22.82872 | -43.24226 | 29 ft | 7 kts | 114° |
| 2026-04-24 12:24 | -22.82866 | -43.24177 | 30 ft | 7 kts | 52° |
| 2026-04-24 12:24 | -22.82819 | -43.24171 | 27 ft | 7 kts | 346° |
| 2026-04-24 12:24 | -22.82774 | -43.24188 | 28 ft | 7 kts | 341° |
| 2026-04-24 12:24 | -22.82729 | -43.24208 | 27 ft | 7 kts | 335° |
| 2026-04-24 12:25 | -22.82684 | -43.24229 | 26 ft | 7 kts | 341° |
| 2026-04-24 12:25 | -22.82637 | -43.24227 | 27 ft | 7 kts | 18° |
| 2026-04-24 12:25 | -22.82594 | -43.24201 | 30 ft | 7 kts | 33° |
| 2026-04-24 12:25 | -22.82551 | -43.24178 | 30 ft | 7 kts | 12° |
| 2026-04-24 12:26 | -22.82507 | -43.24195 | 30 ft | 7 kts | 319° |
| 2026-04-24 12:26 | -22.82476 | -43.24236 | 28 ft | 8 kts | 307° |
| 2026-04-24 12:26 | -22.82424 | -43.24315 | 27 ft | 15 kts | 306° |
| 2026-04-24 12:26 | -22.82338 | -43.24365 | 25 ft | 12 kts | 20° |
| 2026-04-24 12:27 | -22.82324 | -43.24359 | 25 ft | 1 kts | 87° |
| 2026-04-24 12:27 | -22.82324 | -43.24358 | 24 ft | 0 kts | 91° |
| 2026-04-24 12:28 | -22.80181 | -43.25495 | 29 ft | 0 kts | 74° |
| 2026-04-24 12:29 | -22.80180 | -43.25489 | 29 ft | 8 kts | 75° |
| 2026-04-24 12:29 | -22.80103 | -43.25188 | 29 ft | 76 kts | 74° |
| 2026-04-24 12:29 | -22.79903 | -43.24414 | 37 ft | 136 kts | 74° |
| 2026-04-24 12:29 | -22.79597 | -43.23250 | 37 ft | 183 kts | 74° |
| 2026-04-24 12:30 | -22.79270 | -43.21845 | 348 ft | 191 kts | 73° |
| 2026-04-24 12:30 | -22.78942 | -43.20439 | 844 ft | 197 kts | 76° |
| 2026-04-24 12:30 | -22.78624 | -43.18978 | 1328 ft | 200 kts | 76° |
| 2026-04-24 12:30 | -22.78305 | -43.17497 | 1774 ft | 207 kts | 76° |
| 2026-04-24 12:31 | -22.77964 | -43.15906 | 1940 ft | 226 kts | 76° |
| 2026-04-24 12:31 | -22.77725 | -43.14778 | 2060 ft | 239 kts | 76° |
| 2026-04-24 12:31 | -22.77210 | -43.12355 | 2533 ft | 257 kts | 76° |
| 2026-04-24 12:31 | -22.76806 | -43.10448 | 3090 ft | 262 kts | 76° |
| 2026-04-24 12:32 | -22.76530 | -43.09140 | 3526 ft | 264 kts | 76° |
| 2026-04-24 12:32 | -22.75987 | -43.06571 | 4428 ft | 265 kts | 76° |
| 2026-04-24 12:32 | -22.75575 | -43.04622 | 5081 ft | 266 kts | 77° |
| 2026-04-24 12:32 | -22.75158 | -43.02672 | 5726 ft | 265 kts | 74° |
| 2026-04-24 12:33 | -22.74710 | -43.01416 | 6053 ft | 266 kts | 56° |
| 2026-04-24 12:33 | -22.73356 | -43.00068 | 6563 ft | 270 kts | 26° |
| 2026-04-24 12:33 | -22.71538 | -42.99581 | 7107 ft | 274 kts | 0° |
| 2026-04-24 12:33 | -22.69656 | -42.99973 | 7616 ft | 280 kts | 337° |
| 2026-04-24 12:34 | -22.67950 | -43.00952 | 7996 ft | 282 kts | 340° |
| 2026-04-24 12:34 | -22.66027 | -43.01232 | 8314 ft | 283 kts | 14° |
| 2026-04-24 12:34 | -22.64166 | -43.00613 | 8819 ft | 281 kts | 20° |
| 2026-04-24 12:34 | -22.62295 | -42.99958 | 9370 ft | 284 kts | 18° |
| 2026-04-24 12:35 | -22.60387 | -42.99364 | 9943 ft | 287 kts | 17° |
| 2026-04-24 12:35 | -22.58451 | -42.98808 | 10415 ft | 291 kts | 16° |
| 2026-04-24 12:35 | -22.56431 | -42.98257 | 10589 ft | 308 kts | 15° |
| 2026-04-24 12:35 | -22.54287 | -42.97693 | 10735 ft | 326 kts | 15° |
| 2026-04-24 12:36 | -22.52014 | -42.97111 | 10887 ft | 344 kts | 14° |
| 2026-04-24 12:36 | -22.49623 | -42.96510 | 10995 ft | 362 kts | 14° |
| 2026-04-24 12:36 | -22.47121 | -42.95889 | 11305 ft | 374 kts | 14° |
| 2026-04-24 12:36 | -22.44560 | -42.95255 | 11717 ft | 380 kts | 14° |
| 2026-04-24 12:37 | -22.41973 | -42.94616 | 12298 ft | 383 kts | 14° |
| 2026-04-24 12:37 | -22.39362 | -42.93971 | 12902 ft | 385 kts | 14° |
| 2026-04-24 12:37 | -22.36747 | -42.93326 | 13523 ft | 387 kts | 14° |
| 2026-04-24 12:37 | -22.34121 | -42.92678 | 14112 ft | 389 kts | 13° |
| 2026-04-24 12:38 | -22.31444 | -42.92273 | 14440 ft | 393 kts | 359° |
| 2026-04-24 12:38 | -22.28723 | -42.92712 | 14647 ft | 400 kts | 349° |
| 2026-04-24 12:38 | -22.26010 | -42.93284 | 15096 ft | 403 kts | 351° |
| 2026-04-24 12:39 | -22.17645 | -42.94251 | 16362 ft | 409 kts | 12° |
| 2026-04-24 12:39 | -22.14968 | -42.93192 | 16729 ft | 412 kts | 30° |
| 2026-04-24 12:39 | -22.12674 | -42.91350 | 17188 ft | 413 kts | 45° |
| 2026-04-24 12:40 | -22.10715 | -42.89069 | 17502 ft | 417 kts | 48° |
| 2026-04-24 12:40 | -22.08770 | -42.86720 | 17915 ft | 422 kts | 49° |
| 2026-04-24 12:40 | -22.06817 | -42.84346 | 18399 ft | 424 kts | 49° |
| 2026-04-24 12:40 | -22.04847 | -42.81961 | 18789 ft | 428 kts | 49° |
| 2026-04-24 12:41 | -22.02855 | -42.79562 | 19133 ft | 432 kts | 48° |
| 2026-04-24 12:41 | -22.00831 | -42.77141 | 19449 ft | 437 kts | 48° |
| 2026-04-24 12:41 | -21.98781 | -42.74702 | 19787 ft | 441 kts | 48° |
| 2026-04-24 12:41 | -21.96711 | -42.72248 | 20149 ft | 445 kts | 48° |
| 2026-04-24 12:42 | -21.94619 | -42.69773 | 20494 ft | 448 kts | 48° |
| 2026-04-24 12:42 | -21.92508 | -42.67279 | 20839 ft | 452 kts | 47° |
| 2026-04-24 12:42 | -21.90382 | -42.64769 | 21163 ft | 456 kts | 48° |
| 2026-04-24 12:42 | -21.88234 | -42.62233 | 21512 ft | 460 kts | 48° |
| 2026-04-24 12:43 | -21.86071 | -42.59681 | 21862 ft | 463 kts | 48° |
| 2026-04-24 12:43 | -21.83888 | -42.57107 | 22194 ft | 467 kts | 47° |
| 2026-04-24 12:43 | -21.81691 | -42.54517 | 22517 ft | 471 kts | 47° |
| 2026-04-24 12:43 | -21.79476 | -42.51906 | 22838 ft | 474 kts | 47° |
| 2026-04-24 12:44 | -21.77241 | -42.49274 | 23153 ft | 478 kts | 47° |
| 2026-04-24 12:44 | -21.74991 | -42.46624 | 23485 ft | 482 kts | 47° |
| 2026-04-24 12:44 | -21.72720 | -42.43952 | 23790 ft | 485 kts | 47° |
| 2026-04-24 12:44 | -21.70437 | -42.41267 | 24068 ft | 489 kts | 47° |
| 2026-04-24 12:45 | -21.68134 | -42.38561 | 24375 ft | 490 kts | 47° |
| 2026-04-24 12:45 | -21.65827 | -42.35851 | 24677 ft | 493 kts | 47° |
| 2026-04-24 12:45 | -21.63507 | -42.33127 | 24956 ft | 496 kts | 47° |
| 2026-04-24 12:45 | -21.61205 | -42.30424 | 25231 ft | 499 kts | 47° |
| 2026-04-24 12:46 | -21.58858 | -42.27671 | 25489 ft | 502 kts | 47° |
| 2026-04-24 12:46 | -21.56495 | -42.24900 | 25761 ft | 504 kts | 47° |
| 2026-04-24 12:46 | -21.54116 | -42.22113 | 26037 ft | 507 kts | 47° |
| 2026-04-24 12:46 | -21.51729 | -42.19317 | 26341 ft | 509 kts | 47° |
| 2026-04-24 12:47 | -21.49331 | -42.16509 | 26608 ft | 512 kts | 47° |
| 2026-04-24 12:47 | -21.46919 | -42.13688 | 26873 ft | 514 kts | 47° |
| 2026-04-24 12:47 | -21.44494 | -42.10852 | 27137 ft | 517 kts | 47° |
| 2026-04-24 12:47 | -21.42057 | -42.08003 | 27393 ft | 520 kts | 47° |
| 2026-04-24 12:48 | -21.39605 | -42.05138 | 27676 ft | 522 kts | 47° |
| 2026-04-24 12:48 | -21.37141 | -42.02260 | 27950 ft | 525 kts | 47° |
| 2026-04-24 12:48 | -21.34664 | -41.99370 | 28220 ft | 527 kts | 47° |
| 2026-04-24 12:48 | -21.32180 | -41.96473 | 28493 ft | 529 kts | 47° |
| 2026-04-24 12:49 | -21.29681 | -41.93559 | 28738 ft | 532 kts | 47° |
| 2026-04-24 12:49 | -21.27167 | -41.90629 | 28979 ft | 535 kts | 47° |
| 2026-04-24 12:49 | -21.24646 | -41.87692 | 29223 ft | 537 kts | 46° |
| 2026-04-24 12:49 | -21.22109 | -41.84739 | 29453 ft | 539 kts | 46° |
| 2026-04-24 12:50 | -21.19455 | -41.81895 | 29668 ft | 541 kts | 38° |
| 2026-04-24 12:50 | -21.16323 | -41.79681 | 29863 ft | 539 kts | 27° |
| 2026-04-24 12:50 | -21.13008 | -41.77818 | 30186 ft | 538 kts | 25° |
| 2026-04-24 12:50 | -21.09676 | -41.76001 | 30502 ft | 538 kts | 25° |
| 2026-04-24 12:51 | -21.06357 | -41.74166 | 30812 ft | 537 kts | 26° |
| 2026-04-24 12:51 | -21.03060 | -41.72294 | 31120 ft | 537 kts | 27° |
| 2026-04-24 12:51 | -20.99765 | -41.70380 | 31169 ft | 539 kts | 27° |
| 2026-04-24 12:52 | -20.93226 | -41.66506 | 31196 ft | 535 kts | 28° |
| 2026-04-24 12:52 | -20.86788 | -41.62677 | 31217 ft | 532 kts | 27° |
| 2026-04-24 12:53 | -20.80321 | -41.58850 | 31201 ft | 531 kts | 27° |
| 2026-04-24 12:53 | -20.73860 | -41.55041 | 31197 ft | 531 kts | 27° |
| 2026-04-24 12:54 | -20.67384 | -41.51226 | 31214 ft | 532 kts | 28° |
| 2026-04-24 12:54 | -20.60894 | -41.47404 | 31213 ft | 533 kts | 27° |
| 2026-04-24 12:55 | -20.54390 | -41.43576 | 31194 ft | 534 kts | 28° |
| 2026-04-24 12:55 | -20.47885 | -41.39751 | 31194 ft | 534 kts | 28° |
| 2026-04-24 12:56 | -20.41394 | -41.35914 | 31197 ft | 533 kts | 28° |
| 2026-04-24 12:56 | -20.34905 | -41.32075 | 31211 ft | 533 kts | 28° |
| 2026-04-24 12:57 | -20.28435 | -41.28252 | 31206 ft | 531 kts | 28° |
| 2026-04-24 12:57 | -20.21972 | -41.24440 | 31204 ft | 530 kts | 28° |
| 2026-04-24 12:58 | -20.15536 | -41.20646 | 31233 ft | 528 kts | 28° |
| 2026-04-24 12:58 | -20.09115 | -41.16861 | 31204 ft | 528 kts | 28° |
| 2026-04-24 12:59 | -20.02703 | -41.13079 | 31198 ft | 528 kts | 28° |
| 2026-04-24 12:59 | -19.96316 | -41.09314 | 31184 ft | 528 kts | 28° |
| 2026-04-24 13:00 | -19.89888 | -41.05529 | 31187 ft | 528 kts | 28° |
| 2026-04-24 13:00 | -19.83468 | -41.01763 | 31183 ft | 527 kts | 28° |
| 2026-04-24 13:01 | -19.77024 | -40.98033 | 31174 ft | 527 kts | 28° |
| 2026-04-24 13:01 | -19.70584 | -40.94312 | 31169 ft | 527 kts | 28° |
| 2026-04-24 13:02 | -19.64190 | -40.90611 | 31176 ft | 526 kts | 28° |
| 2026-04-24 13:02 | -19.57716 | -40.86869 | 31188 ft | 527 kts | 28° |
| 2026-04-24 13:03 | -19.51277 | -40.83147 | 31181 ft | 527 kts | 28° |
| 2026-04-24 13:03 | -19.44835 | -40.79421 | 31170 ft | 528 kts | 28° |
| 2026-04-24 13:04 | -19.38402 | -40.75702 | 31174 ft | 527 kts | 28° |
| 2026-04-24 13:04 | -19.31964 | -40.71984 | 31165 ft | 526 kts | 28° |
| 2026-04-24 13:05 | -19.25541 | -40.68279 | 31165 ft | 526 kts | 28° |
| 2026-04-24 13:05 | -19.19124 | -40.64580 | 31163 ft | 525 kts | 28° |
| 2026-04-24 13:06 | -19.12715 | -40.60890 | 31167 ft | 524 kts | 28° |
| 2026-04-24 13:06 | -19.06312 | -40.57207 | 31164 ft | 524 kts | 28° |
| 2026-04-24 13:07 | -18.99957 | -40.53553 | 31164 ft | 523 kts | 28° |
| 2026-04-24 13:07 | -18.93564 | -40.49881 | 31166 ft | 523 kts | 28° |
| 2026-04-24 13:08 | -18.87178 | -40.46217 | 31156 ft | 523 kts | 28° |
| 2026-04-24 13:08 | -18.80788 | -40.42554 | 31157 ft | 523 kts | 28° |
| 2026-04-24 13:09 | -18.71205 | -40.37066 | 31160 ft | 522 kts | 28° |
| 2026-04-24 13:09 | -18.64815 | -40.33411 | 31159 ft | 522 kts | 28° |
| 2026-04-24 13:10 | -18.58425 | -40.29758 | 31152 ft | 522 kts | 28° |
| 2026-04-24 13:10 | -18.52039 | -40.26111 | 31155 ft | 522 kts | 28° |
| 2026-04-24 13:11 | -18.45659 | -40.22471 | 31151 ft | 522 kts | 28° |
| 2026-04-24 13:11 | -18.39275 | -40.18831 | 31150 ft | 521 kts | 28° |
| 2026-04-24 13:12 | -18.32897 | -40.15198 | 31150 ft | 521 kts | 28° |
| 2026-04-24 13:12 | -18.26519 | -40.11568 | 31153 ft | 521 kts | 28° |
| 2026-04-24 13:13 | -18.20144 | -40.07942 | 31148 ft | 521 kts | 28° |
| 2026-04-24 13:13 | -18.13766 | -40.04318 | 31145 ft | 521 kts | 28° |
| 2026-04-24 13:14 | -18.07387 | -40.00695 | 31144 ft | 521 kts | 28° |
| 2026-04-24 13:14 | -18.01005 | -39.97074 | 31144 ft | 521 kts | 28° |
| 2026-04-24 13:15 | -17.94631 | -39.93446 | 31146 ft | 521 kts | 29° |
| 2026-04-24 13:15 | -17.88311 | -39.89834 | 31141 ft | 521 kts | 29° |
| 2026-04-24 13:16 | -17.81901 | -39.86174 | 31147 ft | 521 kts | 29° |
| 2026-04-24 13:16 | -17.75583 | -39.82571 | 31135 ft | 521 kts | 29° |
| 2026-04-24 13:17 | -17.69213 | -39.78943 | 31139 ft | 521 kts | 29° |
| 2026-04-24 13:17 | -17.62842 | -39.75318 | 31133 ft | 521 kts | 29° |
| 2026-04-24 13:18 | -17.56466 | -39.71692 | 31133 ft | 521 kts | 29° |
| 2026-04-24 13:18 | -17.50095 | -39.68072 | 31132 ft | 521 kts | 29° |
| 2026-04-24 13:19 | -17.43722 | -39.64455 | 31130 ft | 520 kts | 29° |
| 2026-04-24 13:19 | -17.37359 | -39.60845 | 31132 ft | 520 kts | 29° |
| 2026-04-24 13:20 | -17.30999 | -39.57240 | 31129 ft | 520 kts | 29° |
| 2026-04-24 13:20 | -17.24633 | -39.53634 | 31128 ft | 520 kts | 29° |
| 2026-04-24 13:21 | -17.18286 | -39.50042 | 31129 ft | 521 kts | 29° |
| 2026-04-24 13:21 | -17.13033 | -39.47071 | 31123 ft | 521 kts | 29° |
| 2026-04-24 13:22 | -17.06656 | -39.43466 | 31125 ft | 521 kts | 29° |
| 2026-04-24 13:22 | -17.00293 | -39.39873 | 31121 ft | 521 kts | 29° |
| 2026-04-24 13:23 | -16.93923 | -39.36279 | 31122 ft | 521 kts | 29° |
| 2026-04-24 13:23 | -16.87557 | -39.32690 | 31124 ft | 521 kts | 29° |
| 2026-04-24 13:24 | -16.81181 | -39.29095 | 31120 ft | 521 kts | 29° |
| 2026-04-24 13:24 | -16.74842 | -39.25525 | 31116 ft | 521 kts | 29° |
| 2026-04-24 13:25 | -16.68502 | -39.21956 | 31111 ft | 521 kts | 29° |
| 2026-04-24 13:25 | -16.62141 | -39.18378 | 31106 ft | 520 kts | 29° |
| 2026-04-24 13:26 | -16.55766 | -39.14796 | 31105 ft | 519 kts | 29° |
| 2026-04-24 13:26 | -16.49411 | -39.11226 | 31102 ft | 519 kts | 29° |
| 2026-04-24 13:27 | -16.43053 | -39.07664 | 31104 ft | 519 kts | 29° |
| 2026-04-24 13:27 | -16.36636 | -39.04230 | 31106 ft | 518 kts | 28° |
| 2026-04-24 13:28 | -16.30216 | -39.00837 | 31100 ft | 518 kts | 28° |
| 2026-04-24 13:28 | -16.23810 | -38.97422 | 31105 ft | 517 kts | 28° |
| 2026-04-24 13:29 | -16.17437 | -38.93960 | 31108 ft | 516 kts | 29° |
| 2026-04-24 13:29 | -16.11092 | -38.90459 | 31116 ft | 516 kts | 29° |
| 2026-04-24 13:30 | -16.04752 | -38.86971 | 31108 ft | 516 kts | 29° |
| 2026-04-24 13:30 | -15.98400 | -38.83491 | 31095 ft | 516 kts | 29° |
| 2026-04-24 13:31 | -15.92060 | -38.80019 | 31100 ft | 515 kts | 29° |
| 2026-04-24 13:31 | -15.85727 | -38.76554 | 31098 ft | 514 kts | 29° |
| 2026-04-24 13:32 | -15.79443 | -38.73120 | 31096 ft | 514 kts | 29° |
| 2026-04-24 13:32 | -15.73116 | -38.69665 | 31095 ft | 514 kts | 29° |
| 2026-04-24 13:33 | -15.66783 | -38.66208 | 31105 ft | 514 kts | 29° |
| 2026-04-24 13:33 | -15.60443 | -38.62749 | 31086 ft | 515 kts | 29° |
| 2026-04-24 13:34 | -15.54104 | -38.59292 | 31087 ft | 515 kts | 29° |
| 2026-04-24 13:34 | -15.47770 | -38.55841 | 31088 ft | 514 kts | 29° |
| 2026-04-24 13:35 | -15.41438 | -38.52394 | 31087 ft | 514 kts | 29° |
| 2026-04-24 13:35 | -15.35102 | -38.48947 | 31091 ft | 514 kts | 29° |
| 2026-04-24 13:36 | -15.28767 | -38.45502 | 31087 ft | 515 kts | 29° |
| 2026-04-24 13:36 | -15.22425 | -38.42056 | 31081 ft | 514 kts | 29° |
| 2026-04-24 13:37 | -15.16092 | -38.38617 | 31081 ft | 514 kts | 29° |
| 2026-04-24 13:37 | -15.09802 | -38.35204 | 31077 ft | 513 kts | 29° |
| 2026-04-24 13:38 | -15.03479 | -38.31774 | 31079 ft | 513 kts | 29° |
| 2026-04-24 13:38 | -14.97152 | -38.28344 | 31078 ft | 513 kts | 29° |
| 2026-04-24 13:39 | -14.90833 | -38.24916 | 31076 ft | 513 kts | 29° |
| 2026-04-24 13:39 | -14.84509 | -38.21486 | 31074 ft | 513 kts | 29° |
| 2026-04-24 13:40 | -14.78186 | -38.18059 | 31072 ft | 514 kts | 29° |
| 2026-04-24 13:40 | -14.71850 | -38.14627 | 31071 ft | 514 kts | 29° |
| 2026-04-24 13:41 | -14.65518 | -38.11199 | 31069 ft | 514 kts | 29° |
| 2026-04-24 13:41 | -14.59187 | -38.07775 | 31067 ft | 514 kts | 29° |
| 2026-04-24 13:42 | -14.52898 | -38.04375 | 31065 ft | 514 kts | 29° |
| 2026-04-24 13:42 | -14.46566 | -38.00955 | 31067 ft | 513 kts | 29° |
| 2026-04-24 13:43 | -14.40238 | -37.97538 | 31064 ft | 513 kts | 29° |
| 2026-04-24 13:43 | -14.33916 | -37.94127 | 31061 ft | 513 kts | 29° |
| 2026-04-24 13:44 | -14.27596 | -37.90719 | 31061 ft | 513 kts | 29° |
| 2026-04-24 13:44 | -14.21279 | -37.87316 | 31060 ft | 513 kts | 29° |
| 2026-04-24 13:45 | -14.14933 | -37.83898 | 31561 ft | 512 kts | 29° |
| 2026-04-24 13:45 | -14.11786 | -37.82205 | 32012 ft | 508 kts | 29° |
| 2026-04-24 13:45 | -14.08663 | -37.80525 | 32454 ft | 505 kts | 29° |
| 2026-04-24 13:46 | -14.05563 | -37.78858 | 32854 ft | 502 kts | 29° |
| 2026-04-24 13:46 | -14.02467 | -37.77193 | 32997 ft | 503 kts | 29° |
| 2026-04-24 13:46 | -13.96250 | -37.73850 | 33038 ft | 504 kts | 29° |
| 2026-04-24 13:47 | -13.90053 | -37.70521 | 33055 ft | 501 kts | 29° |
| 2026-04-24 13:47 | -13.83894 | -37.67215 | 33044 ft | 498 kts | 29° |
| 2026-04-24 13:48 | -13.77767 | -37.63929 | 33043 ft | 496 kts | 29° |
| 2026-04-24 13:48 | -13.71657 | -37.60652 | 33045 ft | 495 kts | 29° |
| 2026-04-24 13:49 | -13.65589 | -37.57400 | 33047 ft | 495 kts | 29° |
| 2026-04-24 13:49 | -13.59475 | -37.54125 | 33045 ft | 496 kts | 29° |
| 2026-04-24 13:50 | -13.53356 | -37.50850 | 33036 ft | 496 kts | 29° |
| 2026-04-24 13:50 | -13.47233 | -37.47574 | 33036 ft | 496 kts | 29° |
| 2026-04-24 13:51 | -13.41109 | -37.44300 | 33037 ft | 496 kts | 29° |
| 2026-04-24 13:51 | -13.34981 | -37.41025 | 33036 ft | 497 kts | 29° |
| 2026-04-24 13:52 | -13.28853 | -37.37753 | 33035 ft | 496 kts | 29° |
| 2026-04-24 13:52 | -13.22724 | -37.34481 | 33031 ft | 496 kts | 29° |
| 2026-04-24 13:53 | -13.16614 | -37.31221 | 33032 ft | 496 kts | 29° |
| 2026-04-24 13:53 | -13.10499 | -37.27960 | 33029 ft | 496 kts | 30° |
| 2026-04-24 13:54 | -13.04402 | -37.24714 | 33027 ft | 496 kts | 29° |
| 2026-04-24 13:54 | -12.98275 | -37.21458 | 33019 ft | 496 kts | 29° |
| 2026-04-24 13:55 | -12.92191 | -37.18225 | 33023 ft | 496 kts | 29° |
| 2026-04-24 13:55 | -12.86053 | -37.14964 | 33021 ft | 496 kts | 30° |
| 2026-04-24 13:56 | -12.79929 | -37.11713 | 33023 ft | 496 kts | 29° |
| 2026-04-24 13:56 | -12.73846 | -37.08484 | 33021 ft | 496 kts | 29° |
| 2026-04-24 13:57 | -12.67723 | -37.05236 | 33020 ft | 496 kts | 29° |
| 2026-04-24 13:57 | -12.61598 | -37.01989 | 33016 ft | 496 kts | 29° |
| 2026-04-24 13:58 | -12.55473 | -36.98743 | 33021 ft | 496 kts | 29° |
| 2026-04-24 13:58 | -12.49344 | -36.95497 | 33018 ft | 496 kts | 29° |
| 2026-04-24 13:59 | -12.43214 | -36.92252 | 33017 ft | 496 kts | 29° |
| 2026-04-24 13:59 | -12.37082 | -36.89008 | 33014 ft | 496 kts | 29° |
| 2026-04-24 14:00 | -12.30951 | -36.85766 | 33013 ft | 496 kts | 29° |
| 2026-04-24 14:00 | -12.24814 | -36.82530 | 33012 ft | 496 kts | 29° |
| 2026-04-24 14:01 | -12.18671 | -36.79292 | 33009 ft | 497 kts | 29° |
| 2026-04-24 14:01 | -12.12534 | -36.76057 | 33008 ft | 497 kts | 29° |
| 2026-04-24 14:02 | -12.06437 | -36.72844 | 33013 ft | 497 kts | 29° |
| 2026-04-24 14:02 | -12.00295 | -36.69609 | 33008 ft | 497 kts | 29° |
| 2026-04-24 14:03 | -11.94153 | -36.66376 | 33008 ft | 496 kts | 29° |
| 2026-04-24 14:03 | -11.88014 | -36.63146 | 33006 ft | 496 kts | 29° |
| 2026-04-24 14:04 | -11.81871 | -36.59916 | 33005 ft | 496 kts | 29° |
| 2026-04-24 14:04 | -11.75745 | -36.56696 | 33006 ft | 496 kts | 28° |
| 2026-04-24 14:05 | -11.69609 | -36.53473 | 33001 ft | 496 kts | 28° |
| 2026-04-24 14:05 | -11.63462 | -36.50245 | 32998 ft | 497 kts | 28° |
| 2026-04-24 14:06 | -11.57320 | -36.47021 | 33000 ft | 496 kts | 29° |
| 2026-04-24 14:06 | -11.51177 | -36.43799 | 33001 ft | 497 kts | 28° |
| 2026-04-24 14:07 | -11.45031 | -36.40576 | 32997 ft | 497 kts | 28° |
| 2026-04-24 14:07 | -11.38884 | -36.37355 | 32998 ft | 497 kts | 28° |
| 2026-04-24 14:08 | -11.32779 | -36.34157 | 32998 ft | 497 kts | 28° |
| 2026-04-24 14:08 | -11.26625 | -36.30935 | 32997 ft | 497 kts | 29° |
| 2026-04-24 14:09 | -11.20478 | -36.27718 | 32995 ft | 497 kts | 29° |
| 2026-04-24 14:09 | -11.14331 | -36.24502 | 32996 ft | 497 kts | 29° |
| 2026-04-24 14:10 | -11.08252 | -36.21176 | 32984 ft | 496 kts | 31° |
| 2026-04-24 14:10 | -11.02307 | -36.17626 | 32989 ft | 495 kts | 32° |
| 2026-04-24 14:11 | -10.96366 | -36.14070 | 32985 ft | 495 kts | 31° |
| 2026-04-24 14:12 | -10.87425 | -36.08808 | 32988 ft | 495 kts | 31° |
| 2026-04-24 14:12 | -10.81462 | -36.05318 | 32985 ft | 494 kts | 31° |
| 2026-04-24 14:13 | -10.75505 | -36.01831 | 32990 ft | 494 kts | 31° |
| 2026-04-24 14:13 | -10.69581 | -35.98362 | 32992 ft | 494 kts | 31° |
| 2026-04-24 14:14 | -10.63612 | -35.94868 | 32977 ft | 496 kts | 31° |
| 2026-04-24 14:14 | -10.54631 | -35.89614 | 32984 ft | 498 kts | 30° |
| 2026-04-24 14:15 | -10.49593 | -35.86668 | 32983 ft | 499 kts | 31° |
| 2026-04-24 14:15 | -10.43612 | -35.83173 | 32984 ft | 499 kts | 31° |
| 2026-04-24 14:16 | -10.37586 | -35.79652 | 32977 ft | 500 kts | 30° |
| 2026-04-24 14:17 | -10.28523 | -35.74373 | 32976 ft | 501 kts | 30° |
| 2026-04-24 14:17 | -10.19465 | -35.69103 | 32978 ft | 502 kts | 30° |
| 2026-04-24 14:18 | -10.13420 | -35.65587 | 32977 ft | 502 kts | 30° |
| 2026-04-24 14:18 | -10.07366 | -35.62066 | 32977 ft | 501 kts | 30° |
| 2026-04-24 14:19 | -10.01315 | -35.58548 | 32975 ft | 501 kts | 30° |
| 2026-04-24 14:19 | -9.95294 | -35.55050 | 32974 ft | 500 kts | 30° |
| 2026-04-24 14:20 | -9.89260 | -35.51545 | 32975 ft | 500 kts | 31° |
| 2026-04-24 14:20 | -9.83228 | -35.48043 | 32976 ft | 499 kts | 30° |
| 2026-04-24 14:21 | -9.77194 | -35.44542 | 32974 ft | 499 kts | 30° |
| 2026-04-24 14:21 | -9.71159 | -35.41042 | 32973 ft | 500 kts | 30° |
| 2026-04-24 14:22 | -9.65124 | -35.37542 | 32976 ft | 500 kts | 30° |
| 2026-04-24 14:23 | -9.56102 | -35.32313 | 32971 ft | 500 kts | 30° |
| 2026-04-24 14:23 | -9.50056 | -35.28811 | 32970 ft | 501 kts | 30° |
| 2026-04-24 14:24 | -9.44005 | -35.25308 | 32971 ft | 501 kts | 30° |
| 2026-04-24 14:24 | -9.37948 | -35.21802 | 32968 ft | 501 kts | 30° |
| 2026-04-24 14:25 | -9.31895 | -35.18300 | 32972 ft | 501 kts | 30° |
| 2026-04-24 14:25 | -9.25836 | -35.14796 | 32970 ft | 502 kts | 30° |
| 2026-04-24 14:26 | -9.19773 | -35.11291 | 32968 ft | 502 kts | 30° |
| 2026-04-24 14:26 | -9.13730 | -35.07798 | 32966 ft | 502 kts | 30° |
| 2026-04-24 14:27 | -9.07671 | -35.04298 | 32964 ft | 502 kts | 30° |
| 2026-04-24 14:27 | -9.01388 | -35.01234 | 32965 ft | 502 kts | 22° |
| 2026-04-24 14:28 | -8.94959 | -34.98613 | 32964 ft | 502 kts | 22° |
| 2026-04-24 14:28 | -8.88473 | -34.95959 | 32962 ft | 503 kts | 22° |
| 2026-04-24 14:29 | -8.81986 | -34.93269 | 32962 ft | 505 kts | 23° |
| 2026-04-24 14:29 | -8.75493 | -34.90562 | 32966 ft | 505 kts | 22° |
| 2026-04-24 14:30 | -8.70046 | -34.88292 | 32960 ft | 505 kts | 22° |
| 2026-04-24 14:30 | -8.62488 | -34.85146 | 32962 ft | 505 kts | 23° |
| 2026-04-24 14:31 | -8.56002 | -34.82448 | 32960 ft | 504 kts | 23° |
| 2026-04-24 14:31 | -8.49516 | -34.79752 | 32956 ft | 504 kts | 22° |
| 2026-04-24 14:32 | -8.43038 | -34.77059 | 32957 ft | 503 kts | 22° |
| 2026-04-24 14:32 | -8.36561 | -34.74368 | 32960 ft | 504 kts | 22° |
| 2026-04-24 14:33 | -8.30070 | -34.71672 | 32959 ft | 505 kts | 23° |
| 2026-04-24 14:33 | -8.23575 | -34.68974 | 32959 ft | 505 kts | 23° |
| 2026-04-24 14:34 | -8.17075 | -34.66275 | 32955 ft | 505 kts | 23° |
| 2026-04-24 14:34 | -8.10653 | -34.63431 | 32959 ft | 504 kts | 28° |
| 2026-04-24 14:35 | -8.04511 | -34.60077 | 32950 ft | 500 kts | 30° |
| 2026-04-24 14:35 | -7.98417 | -34.56728 | 32947 ft | 497 kts | 29° |
| 2026-04-24 14:36 | -7.92338 | -34.53429 | 32955 ft | 495 kts | 29° |
| 2026-04-24 14:36 | -7.86273 | -34.50153 | 32949 ft | 494 kts | 30° |
| 2026-04-24 14:37 | -7.80216 | -34.46880 | 32958 ft | 493 kts | 30° |
| 2026-04-24 14:37 | -7.74205 | -34.43641 | 32953 ft | 492 kts | 29° |
| 2026-04-24 14:38 | -7.68166 | -34.40490 | 32950 ft | 492 kts | 28° |
| 2026-04-24 14:38 | -7.62073 | -34.37343 | 32951 ft | 492 kts | 28° |
| 2026-04-24 14:39 | -7.55980 | -34.34186 | 32956 ft | 493 kts | 28° |
| 2026-04-24 14:39 | -7.49880 | -34.31016 | 32949 ft | 494 kts | 28° |
| 2026-04-24 14:40 | -7.43770 | -34.27838 | 32949 ft | 494 kts | 28° |
| 2026-04-24 14:40 | -7.37659 | -34.24660 | 32949 ft | 494 kts | 29° |
| 2026-04-24 14:41 | -7.31545 | -34.21483 | 32952 ft | 494 kts | 28° |
| 2026-04-24 14:41 | -7.25435 | -34.18310 | 32950 ft | 494 kts | 28° |
| 2026-04-24 14:42 | -7.19340 | -34.15145 | 32935 ft | 494 kts | 28° |
| 2026-04-24 14:42 | -7.13232 | -34.11974 | 32947 ft | 494 kts | 28° |
| 2026-04-24 14:43 | -7.07154 | -34.08819 | 32945 ft | 494 kts | 28° |
| 2026-04-24 14:43 | -7.01038 | -34.05647 | 32942 ft | 495 kts | 28° |
| 2026-04-24 14:44 | -6.94919 | -34.02473 | 32944 ft | 495 kts | 28° |
| 2026-04-24 14:44 | -6.88801 | -33.99300 | 32945 ft | 495 kts | 28° |
| 2026-04-24 14:45 | -6.82683 | -33.96129 | 32938 ft | 494 kts | 28° |
| 2026-04-24 14:45 | -6.76569 | -33.92961 | 32940 ft | 494 kts | 28° |
| 2026-04-24 14:46 | -6.70462 | -33.89797 | 32940 ft | 494 kts | 28° |
| 2026-04-24 14:46 | -6.64359 | -33.86636 | 32942 ft | 493 kts | 28° |
| 2026-04-24 14:47 | -6.59284 | -33.84008 | 32940 ft | 493 kts | 28° |
| 2026-04-24 14:47 | -6.52153 | -33.80316 | 32940 ft | 493 kts | 28° |
| 2026-04-24 14:48 | -6.46096 | -33.77182 | 32945 ft | 493 kts | 28° |
| 2026-04-24 14:48 | -6.40035 | -33.74047 | 32942 ft | 493 kts | 28° |
| 2026-04-24 14:49 | -6.33917 | -33.70882 | 32942 ft | 493 kts | 28° |
| 2026-04-24 14:49 | -6.27810 | -33.67725 | 32938 ft | 493 kts | 28° |
| 2026-04-24 14:50 | -6.21702 | -33.64567 | 32944 ft | 494 kts | 28° |
| 2026-04-24 14:50 | -6.15604 | -33.61415 | 32939 ft | 494 kts | 28° |
| 2026-04-24 14:51 | -6.09518 | -33.58271 | 32938 ft | 494 kts | 28° |
| 2026-04-24 14:51 | -6.03409 | -33.55116 | 32940 ft | 494 kts | 28° |
| 2026-04-24 14:52 | -5.97297 | -33.51960 | 32938 ft | 494 kts | 28° |
| 2026-04-24 14:52 | -5.91223 | -33.48823 | 32941 ft | 494 kts | 28° |
| 2026-04-24 14:53 | -5.85111 | -33.45669 | 32935 ft | 494 kts | 28° |
| 2026-04-24 14:53 | -5.78995 | -33.42513 | 32937 ft | 494 kts | 28° |
| 2026-04-24 14:54 | -5.72878 | -33.39357 | 32937 ft | 494 kts | 28° |
| 2026-04-24 14:54 | -5.66824 | -33.36235 | 32937 ft | 494 kts | 28° |
| 2026-04-24 14:55 | -5.61754 | -33.33621 | 32933 ft | 495 kts | 28° |
| 2026-04-24 14:55 | -5.54591 | -33.29928 | 32935 ft | 495 kts | 28° |
| 2026-04-24 14:56 | -5.48524 | -33.26801 | 32940 ft | 495 kts | 28° |
| 2026-04-24 14:56 | -5.42394 | -33.23642 | 32933 ft | 495 kts | 28° |
| 2026-04-24 14:57 | -5.36280 | -33.20492 | 32932 ft | 495 kts | 28° |
| 2026-04-24 14:57 | -5.30150 | -33.17335 | 32934 ft | 495 kts | 28° |
| 2026-04-24 14:58 | -5.24022 | -33.14179 | 32936 ft | 495 kts | 28° |
| 2026-04-24 14:58 | -5.17897 | -33.11026 | 32935 ft | 495 kts | 28° |
| 2026-04-24 14:59 | -5.11774 | -33.07875 | 32933 ft | 495 kts | 28° |
| 2026-04-24 14:59 | -5.05648 | -33.04723 | 32936 ft | 494 kts | 28° |
| 2026-04-24 15:00 | -4.99547 | -33.01583 | 32930 ft | 494 kts | 28° |
| 2026-04-24 15:00 | -4.93440 | -32.98442 | 32939 ft | 493 kts | 28° |
| 2026-04-24 15:01 | -4.87349 | -32.95309 | 32937 ft | 493 kts | 28° |
| 2026-04-24 15:01 | -4.81260 | -32.92178 | 32931 ft | 493 kts | 28° |
| 2026-04-24 15:02 | -4.75205 | -32.89065 | 32932 ft | 492 kts | 28° |
| 2026-04-24 15:02 | -4.69129 | -32.85942 | 32931 ft | 492 kts | 28° |
| 2026-04-24 15:03 | -4.64041 | -32.83326 | 32924 ft | 492 kts | 28° |
| 2026-04-24 15:03 | -4.56965 | -32.79690 | 32923 ft | 492 kts | 28° |
| 2026-04-24 15:04 | -4.50903 | -32.76567 | 32930 ft | 491 kts | 28° |
| 2026-04-24 15:04 | -4.44832 | -32.73439 | 32931 ft | 491 kts | 29° |
| 2026-04-24 15:05 | -4.38763 | -32.70312 | 32924 ft | 490 kts | 29° |
| 2026-04-24 15:05 | -4.32711 | -32.67195 | 32922 ft | 489 kts | 29° |
| 2026-04-24 15:06 | -4.27709 | -32.64620 | 32919 ft | 488 kts | 29° |
| 2026-04-24 15:06 | -4.21685 | -32.61518 | 32923 ft | 487 kts | 29° |
| 2026-04-24 15:07 | -4.15653 | -32.58413 | 32925 ft | 487 kts | 29° |
| 2026-04-24 15:07 | -4.09668 | -32.55333 | 32918 ft | 487 kts | 29° |
| 2026-04-24 15:08 | -4.03621 | -32.52222 | 32887 ft | 490 kts | 29° |
| 2026-04-24 15:08 | -3.97611 | -32.49129 | 32883 ft | 488 kts | 29° |
| 2026-04-24 15:09 | -3.91585 | -32.46028 | 32885 ft | 486 kts | 29° |
| 2026-04-24 15:09 | -3.85601 | -32.42951 | 32890 ft | 485 kts | 30° |
| 2026-04-24 15:10 | -3.79617 | -32.39814 | 32896 ft | 486 kts | 30° |
| 2026-04-24 15:10 | -3.73680 | -32.36661 | 32888 ft | 487 kts | 30° |
| 2026-04-24 15:11 | -3.67716 | -32.33500 | 32894 ft | 485 kts | 30° |
| 2026-04-24 15:11 | -3.61761 | -32.30353 | 32903 ft | 483 kts | 30° |
| 2026-04-24 15:12 | -3.55843 | -32.27227 | 32915 ft | 483 kts | 30° |
| 2026-04-24 15:12 | -3.46949 | -32.22530 | 32915 ft | 483 kts | 30° |
| 2026-04-24 15:13 | -3.41004 | -32.19390 | 32916 ft | 483 kts | 30° |
| 2026-04-24 15:13 | -3.35063 | -32.16253 | 32916 ft | 484 kts | 30° |
| 2026-04-24 15:14 | -3.29098 | -32.13103 | 32910 ft | 485 kts | 30° |
| 2026-04-24 15:14 | -3.23144 | -32.09982 | 32907 ft | 486 kts | 29° |
| 2026-04-24 15:15 | -3.17137 | -32.06881 | 32915 ft | 486 kts | 29° |
| 2026-04-24 15:15 | -3.11118 | -32.03777 | 32914 ft | 486 kts | 29° |
| 2026-04-24 15:16 | -3.05105 | -32.00670 | 32914 ft | 487 kts | 29° |
| 2026-04-24 15:16 | -2.99097 | -31.97561 | 32911 ft | 487 kts | 29° |
| 2026-04-24 15:17 | -2.93118 | -31.94467 | 32912 ft | 487 kts | 29° |
| 2026-04-24 15:17 | -2.87098 | -31.91352 | 32905 ft | 487 kts | 29° |
| 2026-04-24 15:18 | -2.81145 | -31.88273 | 32913 ft | 487 kts | 29° |
| 2026-04-24 15:18 | -2.75058 | -31.85125 | 32911 ft | 487 kts | 29° |
| 2026-04-24 15:19 | -2.69045 | -31.82015 | 32911 ft | 488 kts | 29° |
| 2026-04-24 15:19 | -2.63028 | -31.78904 | 32910 ft | 487 kts | 29° |
| 2026-04-24 15:20 | -2.57020 | -31.75797 | 32899 ft | 488 kts | 29° |
| 2026-04-24 15:20 | -2.50990 | -31.72680 | 32909 ft | 488 kts | 29° |
| 2026-04-24 15:21 | -2.44951 | -31.69558 | 32905 ft | 489 kts | 29° |
| 2026-04-24 15:21 | -2.38937 | -31.66450 | 32901 ft | 489 kts | 29° |
| 2026-04-24 15:22 | -2.32888 | -31.63324 | 32907 ft | 490 kts | 29° |
| 2026-04-24 15:23 | -2.23885 | -31.58671 | 32898 ft | 490 kts | 29° |
| 2026-04-24 15:23 | -2.14802 | -31.53978 | 32903 ft | 491 kts | 29° |
| 2026-04-24 15:25 | -2.00686 | -31.46686 | 32902 ft | 490 kts | 29° |
| 2026-04-24 15:26 | -1.84589 | -31.38372 | 32900 ft | 489 kts | 29° |
| 2026-04-24 15:27 | -1.66471 | -31.29016 | 32903 ft | 490 kts | 29° |
| 2026-04-24 15:29 | -1.48340 | -31.19655 | 32902 ft | 490 kts | 28° |
| 2026-04-24 15:31 | -1.27208 | -31.08747 | 32910 ft | 490 kts | 28° |
| 2026-04-24 15:33 | -1.03081 | -30.96295 | 32904 ft | 488 kts | 28° |
| 2026-04-24 15:34 | -0.88031 | -30.88527 | 32902 ft | 489 kts | 28° |
| 2026-04-24 15:35 | -0.72943 | -30.80729 | 32904 ft | 489 kts | 28° |
| 2026-04-24 15:36 | -0.66916 | -30.77615 | 32903 ft | 489 kts | 28° |
| 2026-04-24 15:36 | -0.57894 | -30.72952 | 32903 ft | 489 kts | 29° |
| 2026-04-24 15:37 | -0.51857 | -30.69832 | 32904 ft | 489 kts | 29° |
| 2026-04-24 15:37 | -0.45836 | -30.66721 | 32903 ft | 488 kts | 29° |
| 2026-04-24 15:38 | -0.39802 | -30.63603 | 32902 ft | 488 kts | 29° |
| 2026-04-24 15:38 | -0.33773 | -30.60488 | 32904 ft | 488 kts | 29° |
| 2026-04-24 15:39 | -0.27769 | -30.57385 | 32904 ft | 488 kts | 29° |
| 2026-04-24 15:39 | -0.21764 | -30.54282 | 32904 ft | 487 kts | 29° |
| 2026-04-24 15:40 | -0.15756 | -30.51178 | 32905 ft | 488 kts | 29° |
| 2026-04-24 15:40 | -0.09751 | -30.48075 | 32904 ft | 488 kts | 29° |
| 2026-04-24 15:41 | -0.03724 | -30.44960 | 32904 ft | 488 kts | 29° |
| 2026-04-24 15:41 | 0.02306 | -30.41844 | 32910 ft | 488 kts | 28° |
| 2026-04-24 15:42 | 0.08302 | -30.38746 | 32898 ft | 488 kts | 28° |
| 2026-04-24 15:42 | 0.14315 | -30.35639 | 32906 ft | 488 kts | 28° |
| 2026-04-24 15:43 | 0.20319 | -30.32535 | 32909 ft | 489 kts | 28° |
| 2026-04-24 15:43 | 0.26332 | -30.29428 | 32907 ft | 490 kts | 28° |
| 2026-04-24 15:44 | 0.32425 | -30.26277 | 32905 ft | 490 kts | 28° |
| 2026-04-24 15:44 | 0.38479 | -30.23144 | 32906 ft | 490 kts | 29° |
| 2026-04-24 15:45 | 0.44479 | -30.20038 | 32905 ft | 489 kts | 29° |
| 2026-04-24 15:45 | 0.50506 | -30.16919 | 32905 ft | 487 kts | 29° |
| 2026-04-24 15:46 | 0.56408 | -30.13865 | 32903 ft | 487 kts | 29° |
| 2026-04-24 15:46 | 0.62493 | -30.10716 | 32902 ft | 487 kts | 29° |
| 2026-04-24 15:47 | 0.68546 | -30.07582 | 32916 ft | 493 kts | 29° |
| 2026-04-24 15:47 | 0.74624 | -30.04437 | 32898 ft | 490 kts | 29° |
| 2026-04-24 15:48 | 0.80665 | -30.01311 | 32898 ft | 488 kts | 29° |
| 2026-04-24 15:48 | 0.86656 | -29.98210 | 32898 ft | 486 kts | 29° |
| 2026-04-24 15:49 | 0.92653 | -29.95106 | 32903 ft | 485 kts | 29° |
| 2026-04-24 15:49 | 0.98646 | -29.92003 | 32907 ft | 486 kts | 29° |
| 2026-04-24 15:50 | 1.04636 | -29.88902 | 32907 ft | 487 kts | 29° |
| 2026-04-24 15:50 | 1.10608 | -29.85810 | 32905 ft | 489 kts | 29° |
| 2026-04-24 15:51 | 1.16693 | -29.82660 | 32903 ft | 491 kts | 29° |
| 2026-04-24 15:51 | 1.22733 | -29.79533 | 32903 ft | 492 kts | 29° |
| 2026-04-24 15:52 | 1.28789 | -29.76396 | 32902 ft | 493 kts | 29° |
| 2026-04-24 15:52 | 1.34878 | -29.73243 | 32902 ft | 493 kts | 29° |
| 2026-04-24 15:53 | 1.40918 | -29.70113 | 32900 ft | 492 kts | 29° |
| 2026-04-24 15:53 | 1.46950 | -29.66961 | 32894 ft | 490 kts | 29° |
| 2026-04-24 15:54 | 1.52984 | -29.63796 | 32897 ft | 489 kts | 29° |
| 2026-04-24 15:54 | 1.59002 | -29.60641 | 32898 ft | 488 kts | 29° |
| 2026-04-24 15:55 | 1.65014 | -29.57491 | 32894 ft | 487 kts | 29° |
| 2026-04-24 15:55 | 1.71021 | -29.54345 | 32900 ft | 487 kts | 29° |
| 2026-04-24 15:56 | 1.77016 | -29.51205 | 32902 ft | 486 kts | 29° |
| 2026-04-24 15:56 | 1.81980 | -29.48605 | 32896 ft | 486 kts | 29° |
| 2026-04-24 15:57 | 1.87945 | -29.45480 | 32898 ft | 485 kts | 29° |
| 2026-04-24 15:57 | 1.93910 | -29.42355 | 32901 ft | 485 kts | 29° |
| 2026-04-24 15:58 | 1.99879 | -29.39227 | 32898 ft | 484 kts | 29° |
| 2026-04-24 15:58 | 2.05855 | -29.36096 | 32896 ft | 485 kts | 29° |
| 2026-04-24 15:59 | 2.11812 | -29.32974 | 32897 ft | 486 kts | 29° |
| 2026-04-24 15:59 | 2.17800 | -29.29836 | 32899 ft | 486 kts | 29° |
| 2026-04-24 16:00 | 2.23778 | -29.26703 | 32901 ft | 487 kts | 29° |
| 2026-04-24 16:00 | 2.29760 | -29.23567 | 32906 ft | 486 kts | 29° |
| 2026-04-24 16:01 | 2.35711 | -29.20447 | 32898 ft | 486 kts | 29° |
| 2026-04-24 16:01 | 2.41683 | -29.17316 | 32899 ft | 485 kts | 29° |
| 2026-04-24 16:02 | 2.47633 | -29.14196 | 32898 ft | 484 kts | 29° |
| 2026-04-24 16:02 | 2.53581 | -29.11078 | 32900 ft | 484 kts | 29° |
| 2026-04-24 16:03 | 2.59544 | -29.07950 | 32899 ft | 484 kts | 29° |
| 2026-04-24 16:03 | 2.65466 | -29.04844 | 32899 ft | 484 kts | 29° |
| 2026-04-24 16:04 | 2.71427 | -29.01717 | 32896 ft | 484 kts | 30° |
| 2026-04-24 16:04 | 2.77364 | -28.98602 | 32898 ft | 484 kts | 30° |
| 2026-04-24 16:05 | 2.86305 | -28.93910 | 32898 ft | 484 kts | 29° |
| 2026-04-24 16:06 | 2.95229 | -28.89227 | 32897 ft | 484 kts | 29° |
| 2026-04-24 16:07 | 3.04139 | -28.84549 | 32898 ft | 483 kts | 29° |
| 2026-04-24 16:07 | 3.13035 | -28.79878 | 32896 ft | 482 kts | 29° |
| 2026-04-24 16:08 | 3.21909 | -28.75238 | 32896 ft | 482 kts | 29° |
| 2026-04-24 16:09 | 3.30801 | -28.70591 | 32897 ft | 483 kts | 29° |
| 2026-04-24 16:09 | 3.36716 | -28.67498 | 32892 ft | 483 kts | 29° |
| 2026-04-24 16:11 | 3.51613 | -28.59703 | 32901 ft | 483 kts | 29° |
| 2026-04-24 16:11 | 3.57522 | -28.56610 | 32898 ft | 483 kts | 29° |
| 2026-04-24 16:12 | 3.66453 | -28.51936 | 32904 ft | 483 kts | 29° |
| 2026-04-24 16:13 | 3.75356 | -28.47275 | 32899 ft | 482 kts | 29° |
| 2026-04-24 16:14 | 3.87199 | -28.41072 | 32900 ft | 481 kts | 29° |
| 2026-04-24 16:14 | 3.96082 | -28.36419 | 32900 ft | 481 kts | 29° |
| 2026-04-24 16:15 | 4.04943 | -28.31776 | 32904 ft | 481 kts | 30° |
| 2026-04-24 16:16 | 4.13824 | -28.27121 | 32900 ft | 481 kts | 30° |
| 2026-04-24 16:17 | 4.28600 | -28.19374 | 32901 ft | 482 kts | 30° |
| 2026-04-24 16:18 | 4.40475 | -28.13145 | 32898 ft | 482 kts | 30° |
| 2026-04-24 16:19 | 4.49278 | -28.08527 | 32905 ft | 482 kts | 30° |
| 2026-04-24 16:20 | 4.58220 | -28.03834 | 32903 ft | 482 kts | 30° |
| 2026-04-24 16:20 | 4.67096 | -27.99175 | 32904 ft | 482 kts | 30° |
| 2026-04-24 16:21 | 4.75991 | -27.94504 | 32905 ft | 481 kts | 29° |
| 2026-04-24 16:22 | 4.81928 | -27.91385 | 32907 ft | 482 kts | 29° |
| 2026-04-24 16:22 | 4.90837 | -27.86705 | 32905 ft | 482 kts | 29° |
| 2026-04-24 16:23 | 4.96776 | -27.83584 | 32905 ft | 482 kts | 29° |
| 2026-04-24 16:24 | 5.05678 | -27.78905 | 32905 ft | 482 kts | 29° |
| 2026-04-24 16:24 | 5.11605 | -27.75788 | 32906 ft | 483 kts | 29° |
| 2026-04-24 16:25 | 5.17493 | -27.72692 | 32908 ft | 484 kts | 29° |
| 2026-04-24 16:25 | 5.23418 | -27.69575 | 32908 ft | 484 kts | 29° |
| 2026-04-24 16:26 | 5.32381 | -27.64859 | 32905 ft | 485 kts | 29° |
| 2026-04-24 16:27 | 5.41345 | -27.60142 | 32903 ft | 485 kts | 29° |
| 2026-04-24 16:27 | 5.47324 | -27.56994 | 32908 ft | 486 kts | 29° |
| 2026-04-24 16:28 | 5.53307 | -27.53843 | 32907 ft | 486 kts | 29° |
| 2026-04-24 16:28 | 5.62275 | -27.49120 | 32906 ft | 486 kts | 29° |
| 2026-04-24 16:29 | 5.68255 | -27.45969 | 32903 ft | 486 kts | 29° |
| 2026-04-24 16:30 | 5.80251 | -27.39646 | 32906 ft | 487 kts | 29° |
| 2026-04-24 16:30 | 5.86249 | -27.36483 | 32911 ft | 488 kts | 29° |
| 2026-04-24 16:31 | 5.92227 | -27.33330 | 32908 ft | 489 kts | 29° |
| 2026-04-24 16:31 | 5.98199 | -27.30180 | 32912 ft | 489 kts | 29° |
| 2026-04-24 16:32 | 6.04216 | -27.27005 | 32910 ft | 489 kts | 29° |
| 2026-04-24 16:32 | 6.10223 | -27.23835 | 32908 ft | 489 kts | 29° |
| 2026-04-24 16:33 | 6.16246 | -27.20655 | 32908 ft | 489 kts | 29° |
| 2026-04-24 16:33 | 6.22265 | -27.17476 | 32909 ft | 489 kts | 29° |
| 2026-04-24 16:34 | 6.28244 | -27.14317 | 32912 ft | 489 kts | 29° |
| 2026-04-24 16:34 | 6.34285 | -27.11125 | 32913 ft | 490 kts | 29° |
| 2026-04-24 16:35 | 6.40315 | -27.07938 | 32909 ft | 490 kts | 29° |
| 2026-04-24 16:35 | 6.46342 | -27.04752 | 32910 ft | 490 kts | 29° |
| 2026-04-24 16:36 | 6.52372 | -27.01564 | 32915 ft | 490 kts | 29° |
| 2026-04-24 16:36 | 6.58410 | -26.98370 | 32915 ft | 490 kts | 29° |
| 2026-04-24 16:37 | 6.64434 | -26.95182 | 32913 ft | 490 kts | 29° |
| 2026-04-24 16:37 | 6.70459 | -26.91993 | 32913 ft | 490 kts | 29° |
| 2026-04-24 16:38 | 6.76492 | -26.88798 | 32915 ft | 490 kts | 29° |
| 2026-04-24 16:38 | 6.82521 | -26.85604 | 32920 ft | 489 kts | 28° |
| 2026-04-24 16:39 | 6.88464 | -26.82456 | 32915 ft | 488 kts | 28° |
| 2026-04-24 16:39 | 6.94427 | -26.79296 | 32917 ft | 487 kts | 28° |
| 2026-04-24 16:40 | 7.00403 | -26.76127 | 32917 ft | 486 kts | 28° |
| 2026-04-24 16:40 | 7.06372 | -26.72962 | 32918 ft | 486 kts | 28° |
| 2026-04-24 16:41 | 7.12352 | -26.69790 | 32919 ft | 486 kts | 28° |
| 2026-04-24 16:41 | 7.18323 | -26.66621 | 32921 ft | 486 kts | 28° |
| 2026-04-24 16:42 | 7.24249 | -26.63476 | 32918 ft | 487 kts | 28° |
| 2026-04-24 16:42 | 7.30227 | -26.60302 | 32917 ft | 487 kts | 28° |
| 2026-04-24 16:43 | 7.36207 | -26.57126 | 32917 ft | 487 kts | 28° |
| 2026-04-24 16:43 | 7.42194 | -26.53945 | 32916 ft | 487 kts | 28° |
| 2026-04-24 16:44 | 7.48170 | -26.50770 | 32920 ft | 487 kts | 28° |
| 2026-04-24 16:44 | 7.54154 | -26.47588 | 32919 ft | 487 kts | 28° |
| 2026-04-24 16:45 | 7.60135 | -26.44408 | 32926 ft | 487 kts | 28° |
| 2026-04-24 16:45 | 7.65114 | -26.41759 | 32925 ft | 487 kts | 28° |
| 2026-04-24 16:46 | 7.71102 | -26.38574 | 32922 ft | 487 kts | 28° |
| 2026-04-24 16:46 | 7.77073 | -26.35396 | 32925 ft | 488 kts | 28° |
| 2026-04-24 16:47 | 7.83079 | -26.32198 | 32921 ft | 488 kts | 28° |
| 2026-04-24 16:47 | 7.89072 | -26.29006 | 33236 ft | 489 kts | 28° |
| 2026-04-24 16:48 | 7.92071 | -26.27409 | 33672 ft | 485 kts | 28° |
| 2026-04-24 16:48 | 7.94915 | -26.25894 | 34058 ft | 484 kts | 28° |
| 2026-04-24 16:48 | 7.98007 | -26.24246 | 34387 ft | 482 kts | 28° |
| 2026-04-24 16:48 | 8.00972 | -26.22665 | 34698 ft | 481 kts | 28° |
| 2026-04-24 16:49 | 8.03929 | -26.21089 | 34840 ft | 482 kts | 28° |
| 2026-04-24 16:49 | 8.06861 | -26.19525 | 34893 ft | 483 kts | 28° |
| 2026-04-24 16:49 | 8.12843 | -26.16335 | 34930 ft | 483 kts | 28° |
| 2026-04-24 16:50 | 8.18723 | -26.13198 | 34927 ft | 482 kts | 28° |
| 2026-04-24 16:50 | 8.24630 | -26.10045 | 34928 ft | 481 kts | 28° |
| 2026-04-24 16:51 | 8.30511 | -26.06904 | 34929 ft | 481 kts | 28° |
| 2026-04-24 16:51 | 8.36430 | -26.03744 | 34925 ft | 482 kts | 28° |
| 2026-04-24 16:52 | 8.42305 | -26.00604 | 34926 ft | 482 kts | 28° |
| 2026-04-24 16:52 | 8.48233 | -25.97433 | 34927 ft | 482 kts | 28° |
| 2026-04-24 16:53 | 8.54168 | -25.94256 | 34925 ft | 483 kts | 28° |
| 2026-04-24 16:53 | 8.60091 | -25.91084 | 34929 ft | 483 kts | 28° |
| 2026-04-24 16:54 | 8.66033 | -25.87902 | 34931 ft | 484 kts | 28° |
| 2026-04-24 16:54 | 8.71972 | -25.84721 | 34932 ft | 484 kts | 28° |
| 2026-04-24 16:55 | 8.77920 | -25.81533 | 34925 ft | 484 kts | 28° |
| 2026-04-24 16:55 | 8.83873 | -25.78341 | 34924 ft | 484 kts | 28° |
| 2026-04-24 16:56 | 8.89826 | -25.75149 | 34923 ft | 485 kts | 28° |
| 2026-04-24 16:56 | 8.95751 | -25.71970 | 34930 ft | 485 kts | 28° |
| 2026-04-24 16:57 | 9.01719 | -25.68766 | 34929 ft | 486 kts | 28° |
| 2026-04-24 16:57 | 9.07691 | -25.65559 | 34930 ft | 486 kts | 28° |
| 2026-04-24 16:58 | 9.13672 | -25.62347 | 34931 ft | 486 kts | 28° |
| 2026-04-24 16:58 | 9.19623 | -25.59149 | 34935 ft | 486 kts | 28° |
| 2026-04-24 16:59 | 9.25536 | -25.55970 | 34929 ft | 486 kts | 28° |
| 2026-04-24 17:00 | 9.34474 | -25.51164 | 34931 ft | 486 kts | 28° |
| 2026-04-24 17:00 | 9.43438 | -25.46340 | 34935 ft | 486 kts | 28° |
| 2026-04-24 17:01 | 9.52320 | -25.41557 | 34930 ft | 487 kts | 28° |
| 2026-04-24 17:02 | 9.61291 | -25.36723 | 34935 ft | 487 kts | 28° |
| 2026-04-24 17:02 | 9.67262 | -25.33505 | 34940 ft | 488 kts | 28° |
| 2026-04-24 17:03 | 9.76252 | -25.28655 | 34936 ft | 488 kts | 28° |
| 2026-04-24 17:04 | 9.82249 | -25.25419 | 34931 ft | 488 kts | 28° |
| 2026-04-24 17:04 | 9.91213 | -25.20579 | 34939 ft | 488 kts | 28° |
| 2026-04-24 17:05 | 9.97149 | -25.17376 | 34933 ft | 488 kts | 28° |
| 2026-04-24 17:06 | 10.06141 | -25.12522 | 34939 ft | 488 kts | 28° |
| 2026-04-24 17:06 | 10.15123 | -25.07668 | 34939 ft | 488 kts | 28° |
| 2026-04-24 17:07 | 10.21097 | -25.04438 | 34938 ft | 488 kts | 28° |
| 2026-04-24 17:08 | 10.33061 | -24.97964 | 34938 ft | 488 kts | 27° |
| 2026-04-24 17:08 | 10.39056 | -24.94719 | 34940 ft | 489 kts | 27° |
| 2026-04-24 17:09 | 10.51011 | -24.88243 | 34945 ft | 490 kts | 28° |
| 2026-04-24 17:10 | 10.63020 | -24.81730 | 34938 ft | 490 kts | 27° |
| 2026-04-24 17:12 | 10.87101 | -24.68655 | 34945 ft | 493 kts | 27° |
| 2026-04-24 18:54 | 23.24875 | -17.48710 | 35037 ft | 508 kts | 21° |
| 2026-04-24 18:55 | 23.33982 | -17.42931 | 35052 ft | 508 kts | 21° |
| 2026-04-24 18:56 | 23.40026 | -17.39091 | 35092 ft | 508 kts | 22° |
| 2026-04-24 18:56 | 23.46136 | -17.35206 | 35061 ft | 509 kts | 22° |
| 2026-04-24 18:57 | 23.52235 | -17.31322 | 35054 ft | 509 kts | 22° |
| 2026-04-24 18:57 | 23.58352 | -17.27423 | 35056 ft | 509 kts | 22° |
| 2026-04-24 18:58 | 23.64463 | -17.23523 | 35056 ft | 509 kts | 22° |
| 2026-04-24 18:58 | 23.70573 | -17.19620 | 35057 ft | 509 kts | 22° |
| 2026-04-24 18:59 | 23.76675 | -17.15717 | 35058 ft | 509 kts | 22° |
| 2026-04-24 18:59 | 23.82772 | -17.11815 | 35061 ft | 509 kts | 22° |
| 2026-04-24 19:00 | 23.88880 | -17.07900 | 35062 ft | 509 kts | 22° |
| 2026-04-24 19:00 | 23.94982 | -17.03985 | 35067 ft | 509 kts | 22° |
| 2026-04-24 19:01 | 24.01073 | -17.00072 | 35060 ft | 509 kts | 22° |
| 2026-04-24 19:01 | 24.07189 | -16.96140 | 35074 ft | 510 kts | 22° |
| 2026-04-24 19:02 | 24.12263 | -16.92874 | 35064 ft | 511 kts | 23° |
| 2026-04-24 19:02 | 24.19422 | -16.88260 | 35061 ft | 511 kts | 23° |
| 2026-04-24 19:03 | 24.25552 | -16.84305 | 35059 ft | 511 kts | 23° |
| 2026-04-24 19:03 | 24.31665 | -16.80355 | 35061 ft | 511 kts | 23° |
| 2026-04-24 19:04 | 24.37771 | -16.76406 | 35061 ft | 510 kts | 23° |
| 2026-04-24 19:04 | 24.43839 | -16.72479 | 35062 ft | 511 kts | 23° |
| 2026-04-24 19:05 | 24.49890 | -16.68556 | 35059 ft | 511 kts | 24° |
| 2026-04-24 19:05 | 24.55994 | -16.64595 | 35060 ft | 511 kts | 24° |
| 2026-04-24 19:06 | 24.62117 | -16.60617 | 35063 ft | 511 kts | 24° |
| 2026-04-24 19:06 | 24.68235 | -16.56638 | 35063 ft | 511 kts | 24° |
| 2026-04-24 19:07 | 24.74360 | -16.52651 | 35080 ft | 512 kts | 24° |
| 2026-04-24 19:07 | 24.79428 | -16.49347 | 35073 ft | 512 kts | 24° |
| 2026-04-24 19:08 | 24.86591 | -16.44671 | 35068 ft | 512 kts | 24° |
| 2026-04-24 19:08 | 24.92676 | -16.40694 | 35068 ft | 512 kts | 24° |
| 2026-04-24 19:09 | 24.98795 | -16.36691 | 35074 ft | 511 kts | 24° |
| 2026-04-24 19:09 | 25.04895 | -16.32697 | 35088 ft | 511 kts | 25° |
| 2026-04-24 19:10 | 25.11004 | -16.28691 | 35075 ft | 512 kts | 25° |
| 2026-04-24 19:10 | 25.17107 | -16.24682 | 35073 ft | 512 kts | 25° |
| 2026-04-24 19:11 | 25.23212 | -16.20668 | 35074 ft | 512 kts | 25° |
| 2026-04-24 19:11 | 25.29273 | -16.16677 | 35075 ft | 512 kts | 25° |
| 2026-04-24 19:12 | 25.35380 | -16.12652 | 35073 ft | 512 kts | 25° |
| 2026-04-24 19:12 | 25.41484 | -16.08624 | 35077 ft | 512 kts | 25° |
| 2026-04-24 19:13 | 25.46571 | -16.05263 | 35070 ft | 512 kts | 25° |
| 2026-04-24 19:13 | 25.52649 | -16.01243 | 35074 ft | 512 kts | 25° |
| 2026-04-24 19:14 | 25.58747 | -15.97205 | 35079 ft | 512 kts | 25° |
| 2026-04-24 19:14 | 25.64838 | -15.93167 | 35078 ft | 511 kts | 25° |
| 2026-04-24 19:15 | 25.70920 | -15.89130 | 35091 ft | 511 kts | 25° |
| 2026-04-24 19:15 | 25.76964 | -15.85113 | 35081 ft | 511 kts | 25° |
| 2026-04-24 19:16 | 25.86088 | -15.79041 | 35080 ft | 510 kts | 25° |
| 2026-04-24 19:16 | 25.92176 | -15.74983 | 35080 ft | 510 kts | 25° |
| 2026-04-24 19:17 | 25.98249 | -15.70930 | 35080 ft | 510 kts | 25° |
| 2026-04-24 19:17 | 26.04305 | -15.66884 | 35096 ft | 510 kts | 26° |
| 2026-04-24 19:18 | 26.10333 | -15.62851 | 35085 ft | 510 kts | 26° |
| 2026-04-24 19:18 | 26.16415 | -15.58776 | 35087 ft | 510 kts | 26° |
| 2026-04-24 19:19 | 26.22455 | -15.54726 | 35091 ft | 510 kts | 26° |
| 2026-04-24 19:19 | 26.28485 | -15.50677 | 35079 ft | 509 kts | 26° |
| 2026-04-24 19:20 | 26.34554 | -15.46596 | 35088 ft | 510 kts | 26° |
| 2026-04-24 19:20 | 26.40599 | -15.42527 | 35083 ft | 509 kts | 26° |
| 2026-04-24 19:21 | 26.46667 | -15.38437 | 35084 ft | 509 kts | 26° |
| 2026-04-24 19:21 | 26.52725 | -15.34348 | 35081 ft | 509 kts | 26° |
| 2026-04-24 19:22 | 26.58784 | -15.30254 | 35084 ft | 509 kts | 26° |
| 2026-04-24 19:22 | 26.64832 | -15.26162 | 35105 ft | 509 kts | 26° |
| 2026-04-24 19:23 | 26.70887 | -15.22061 | 35091 ft | 509 kts | 26° |
| 2026-04-24 19:23 | 26.76930 | -15.17964 | 35083 ft | 509 kts | 26° |
| 2026-04-24 19:24 | 26.82990 | -15.13853 | 35088 ft | 509 kts | 26° |
| 2026-04-24 19:24 | 26.89021 | -15.09756 | 35086 ft | 509 kts | 26° |
| 2026-04-24 19:25 | 26.95036 | -15.05663 | 35090 ft | 509 kts | 26° |
| 2026-04-24 19:25 | 27.01082 | -15.01544 | 35090 ft | 509 kts | 26° |
| 2026-04-24 19:26 | 27.07058 | -14.97467 | 35087 ft | 509 kts | 26° |
| 2026-04-24 19:26 | 27.13074 | -14.93358 | 35089 ft | 509 kts | 27° |
| 2026-04-24 19:27 | 27.19144 | -14.89206 | 35089 ft | 509 kts | 27° |
| 2026-04-24 19:27 | 27.25122 | -14.85113 | 35090 ft | 508 kts | 27° |
| 2026-04-24 19:28 | 27.31142 | -14.80985 | 35100 ft | 509 kts | 27° |
| 2026-04-24 19:28 | 27.37147 | -14.76862 | 35092 ft | 508 kts | 27° |
| 2026-04-24 19:29 | 27.46198 | -14.70637 | 35096 ft | 508 kts | 27° |
| 2026-04-24 19:30 | 27.52200 | -14.66503 | 35092 ft | 508 kts | 27° |
| 2026-04-24 19:30 | 27.58209 | -14.62359 | 35092 ft | 508 kts | 27° |
| 2026-04-24 19:31 | 27.64231 | -14.58201 | 35098 ft | 508 kts | 27° |
| 2026-04-24 19:31 | 27.70244 | -14.54043 | 35097 ft | 507 kts | 28° |
| 2026-04-24 19:32 | 27.76240 | -14.49891 | 35091 ft | 507 kts | 28° |
| 2026-04-24 19:32 | 27.82216 | -14.45748 | 35097 ft | 506 kts | 28° |
| 2026-04-24 19:33 | 27.88215 | -14.41583 | 35095 ft | 506 kts | 28° |
| 2026-04-24 19:33 | 27.94194 | -14.37428 | 35107 ft | 506 kts | 28° |
| 2026-04-24 19:34 | 28.00187 | -14.33257 | 35097 ft | 506 kts | 28° |
| 2026-04-24 19:34 | 28.06168 | -14.29088 | 35099 ft | 506 kts | 28° |
| 2026-04-24 19:35 | 28.12143 | -14.24918 | 35100 ft | 506 kts | 28° |
| 2026-04-24 19:35 | 28.18136 | -14.20730 | 35100 ft | 506 kts | 28° |
| 2026-04-24 19:36 | 28.24083 | -14.16569 | 35108 ft | 506 kts | 28° |
| 2026-04-24 19:36 | 28.30048 | -14.12389 | 35111 ft | 505 kts | 28° |
| 2026-04-24 19:37 | 28.35940 | -14.08256 | 35099 ft | 505 kts | 28° |
| 2026-04-24 19:37 | 28.41976 | -14.04016 | 35084 ft | 504 kts | 28° |
| 2026-04-24 19:38 | 28.47906 | -13.99843 | 35083 ft | 504 kts | 28° |
| 2026-04-24 19:38 | 28.53843 | -13.95661 | 35092 ft | 503 kts | 28° |
| 2026-04-24 19:39 | 28.59788 | -13.91468 | 35071 ft | 502 kts | 28° |
| 2026-04-24 19:39 | 28.65701 | -13.87291 | 35096 ft | 501 kts | 28° |
| 2026-04-24 19:40 | 28.71614 | -13.83108 | 35101 ft | 500 kts | 28° |
| 2026-04-24 19:40 | 28.77515 | -13.78930 | 35112 ft | 500 kts | 28° |
| 2026-04-24 19:41 | 28.83403 | -13.74754 | 35086 ft | 500 kts | 28° |
| 2026-04-24 19:41 | 28.89350 | -13.70532 | 35366 ft | 506 kts | 28° |
| 2026-04-24 19:41 | 28.92339 | -13.68407 | 35702 ft | 505 kts | 28° |
| 2026-04-24 19:42 | 28.95318 | -13.66286 | 36047 ft | 504 kts | 28° |
| 2026-04-24 19:42 | 28.98244 | -13.64202 | 36388 ft | 503 kts | 28° |
| 2026-04-24 19:42 | 29.01242 | -13.62066 | 36684 ft | 503 kts | 28° |
| 2026-04-24 19:42 | 29.04203 | -13.59955 | 36957 ft | 503 kts | 27° |
| 2026-04-24 19:43 | 29.07180 | -13.57833 | 37035 ft | 506 kts | 27° |
| 2026-04-24 19:43 | 29.13114 | -13.53511 | 37081 ft | 508 kts | 32° |
| 2026-04-24 19:44 | 29.18337 | -13.48072 | 37094 ft | 511 kts | 45° |
| 2026-04-24 19:44 | 29.22561 | -13.41617 | 37105 ft | 511 kts | 52° |
| 2026-04-24 19:45 | 29.26551 | -13.34923 | 37106 ft | 509 kts | 52° |
| 2026-04-24 19:45 | 29.30547 | -13.28269 | 37114 ft | 508 kts | 52° |
| 2026-04-24 19:46 | 29.34575 | -13.21634 | 37113 ft | 509 kts | 52° |
| 2026-04-24 19:46 | 29.38622 | -13.14984 | 37110 ft | 510 kts | 52° |
| 2026-04-24 19:47 | 29.42654 | -13.08344 | 37111 ft | 512 kts | 52° |
| 2026-04-24 19:47 | 29.46725 | -13.01624 | 37108 ft | 513 kts | 52° |
| 2026-04-24 19:48 | 29.50799 | -12.94885 | 37109 ft | 514 kts | 52° |
| 2026-04-24 19:48 | 29.56907 | -12.84762 | 37101 ft | 514 kts | 52° |
| 2026-04-24 19:49 | 29.65038 | -12.71247 | 37099 ft | 513 kts | 52° |
| 2026-04-24 19:50 | 29.73117 | -12.57776 | 37102 ft | 511 kts | 52° |
| 2026-04-24 19:51 | 29.79122 | -12.47665 | 37098 ft | 511 kts | 52° |
| 2026-04-24 19:52 | 29.85115 | -12.37523 | 37095 ft | 510 kts | 52° |
| 2026-04-24 19:52 | 29.89093 | -12.30783 | 37088 ft | 509 kts | 52° |
| 2026-04-24 19:53 | 29.93068 | -12.24038 | 37091 ft | 509 kts | 52° |
| 2026-04-24 19:54 | 29.99021 | -12.13916 | 37107 ft | 508 kts | 52° |
| 2026-04-24 19:54 | 30.02989 | -12.07167 | 37088 ft | 508 kts | 52° |
| 2026-04-24 19:55 | 30.05650 | -12.02670 | 37110 ft | 508 kts | 52° |
| 2026-04-24 19:55 | 30.10959 | -11.93707 | 37087 ft | 508 kts | 52° |
| 2026-04-24 19:56 | 30.14930 | -11.86980 | 37083 ft | 508 kts | 52° |
| 2026-04-24 19:56 | 30.18904 | -11.80232 | 37085 ft | 508 kts | 52° |
| 2026-04-24 19:57 | 30.22866 | -11.73493 | 37081 ft | 508 kts | 52° |
| 2026-04-24 19:57 | 30.26821 | -11.66752 | 37079 ft | 508 kts | 52° |
| 2026-04-24 19:58 | 30.30116 | -11.61129 | 37081 ft | 508 kts | 52° |
| 2026-04-24 19:58 | 30.34733 | -11.53238 | 37074 ft | 509 kts | 52° |
| 2026-04-24 19:59 | 30.38028 | -11.47595 | 37073 ft | 509 kts | 52° |
| 2026-04-24 19:59 | 30.41981 | -11.40815 | 37072 ft | 509 kts | 52° |
| 2026-04-24 20:00 | 30.45939 | -11.34016 | 37079 ft | 509 kts | 53° |
| 2026-04-24 20:00 | 30.49882 | -11.27228 | 37080 ft | 509 kts | 52° |
| 2026-04-24 20:01 | 30.53788 | -11.20497 | 37073 ft | 509 kts | 52° |
| 2026-04-24 20:01 | 30.57714 | -11.13719 | 37064 ft | 508 kts | 52° |
| 2026-04-24 20:02 | 30.61643 | -11.06923 | 37068 ft | 508 kts | 53° |
| 2026-04-24 20:02 | 30.65559 | -11.00137 | 37059 ft | 507 kts | 53° |
| 2026-04-24 20:03 | 30.69472 | -10.93346 | 37066 ft | 507 kts | 53° |
| 2026-04-24 20:03 | 30.73377 | -10.86558 | 37061 ft | 506 kts | 53° |
| 2026-04-24 20:04 | 30.77256 | -10.79801 | 37065 ft | 506 kts | 53° |
| 2026-04-24 20:04 | 30.81183 | -10.72952 | 37076 ft | 506 kts | 53° |
| 2026-04-24 20:05 | 30.85051 | -10.66192 | 37057 ft | 505 kts | 53° |
| 2026-04-24 20:05 | 30.88953 | -10.59362 | 37066 ft | 505 kts | 53° |
| 2026-04-24 20:06 | 30.92829 | -10.52565 | 37052 ft | 505 kts | 52° |
| 2026-04-24 20:06 | 30.96713 | -10.45742 | 37047 ft | 505 kts | 53° |
| 2026-04-24 20:07 | 30.99935 | -10.40072 | 37050 ft | 505 kts | 53° |
| 2026-04-24 20:07 | 31.04427 | -10.32155 | 37052 ft | 505 kts | 53° |
| 2026-04-24 20:08 | 31.08270 | -10.25370 | 37042 ft | 505 kts | 53° |
| 2026-04-24 20:08 | 31.12139 | -10.18525 | 37086 ft | 505 kts | 52° |
| 2026-04-24 20:09 | 31.16004 | -10.11678 | 37051 ft | 505 kts | 52° |
| 2026-04-24 20:09 | 31.19830 | -10.04885 | 37047 ft | 505 kts | 52° |
| 2026-04-24 20:10 | 31.23670 | -9.98056 | 37032 ft | 505 kts | 53° |
| 2026-04-24 20:10 | 31.27498 | -9.91238 | 37046 ft | 505 kts | 53° |
| 2026-04-24 20:11 | 31.31335 | -9.84390 | 37054 ft | 504 kts | 53° |
| 2026-04-24 20:11 | 31.35171 | -9.77533 | 37053 ft | 505 kts | 52° |
| 2026-04-24 20:12 | 31.39222 | -9.70915 | 37037 ft | 499 kts | 43° |
| 2026-04-24 20:12 | 31.44316 | -9.65563 | 37061 ft | 489 kts | 30° |
| 2026-04-24 20:13 | 31.50060 | -9.61378 | 37033 ft | 486 kts | 26° |
| 2026-04-24 20:13 | 31.55860 | -9.57295 | 37049 ft | 487 kts | 26° |
| 2026-04-24 20:14 | 31.61652 | -9.53165 | 37054 ft | 487 kts | 26° |
| 2026-04-24 20:14 | 31.67402 | -9.49015 | 37062 ft | 488 kts | 26° |
| 2026-04-24 20:15 | 31.73162 | -9.44839 | 37083 ft | 487 kts | 26° |
| 2026-04-24 20:15 | 31.78936 | -9.40647 | 37061 ft | 487 kts | 26° |
| 2026-04-24 20:16 | 31.84704 | -9.36456 | 37070 ft | 487 kts | 26° |
| 2026-04-24 20:16 | 31.90468 | -9.32263 | 37069 ft | 487 kts | 26° |
| 2026-04-24 20:17 | 31.96222 | -9.28071 | 37077 ft | 486 kts | 26° |
| 2026-04-24 20:17 | 32.04826 | -9.21789 | 37081 ft | 486 kts | 26° |
| 2026-04-24 20:18 | 32.10568 | -9.17591 | 37085 ft | 485 kts | 26° |
| 2026-04-24 20:18 | 32.16290 | -9.13400 | 37088 ft | 484 kts | 26° |
| 2026-04-24 20:19 | 32.22003 | -9.09209 | 37089 ft | 484 kts | 26° |
| 2026-04-24 20:19 | 32.27706 | -9.05020 | 37095 ft | 484 kts | 26° |
| 2026-04-24 20:20 | 32.33426 | -9.00812 | 37102 ft | 484 kts | 26° |
| 2026-04-24 20:20 | 32.39127 | -8.96612 | 37093 ft | 484 kts | 26° |
| 2026-04-24 20:21 | 32.44830 | -8.92404 | 37103 ft | 483 kts | 26° |
| 2026-04-24 20:21 | 32.50518 | -8.88199 | 37104 ft | 483 kts | 26° |
| 2026-04-24 20:22 | 32.56208 | -8.83987 | 37110 ft | 483 kts | 26° |
| 2026-04-24 20:22 | 32.61898 | -8.79769 | 37113 ft | 483 kts | 26° |
| 2026-04-24 20:23 | 32.67556 | -8.75569 | 37111 ft | 483 kts | 25° |
| 2026-04-24 20:23 | 32.73248 | -8.71337 | 37128 ft | 482 kts | 25° |
| 2026-04-24 20:24 | 32.78933 | -8.67103 | 37118 ft | 482 kts | 25° |
| 2026-04-24 20:24 | 32.84620 | -8.62862 | 37106 ft | 482 kts | 25° |
| 2026-04-24 20:25 | 32.90273 | -8.58638 | 37101 ft | 481 kts | 25° |
| 2026-04-24 20:25 | 32.95916 | -8.54416 | 37104 ft | 479 kts | 25° |
| 2026-04-24 20:26 | 33.01554 | -8.50191 | 37113 ft | 478 kts | 25° |
| 2026-04-24 20:26 | 33.07159 | -8.45986 | 37104 ft | 477 kts | 25° |
| 2026-04-24 20:27 | 33.12732 | -8.41797 | 37112 ft | 476 kts | 25° |
| 2026-04-24 20:27 | 33.18322 | -8.37590 | 37109 ft | 476 kts | 25° |
| 2026-04-24 20:28 | 33.23924 | -8.33374 | 37122 ft | 476 kts | 25° |
| 2026-04-24 20:28 | 33.29509 | -8.29174 | 37116 ft | 478 kts | 25° |
| 2026-04-24 20:29 | 33.35123 | -8.24945 | 37121 ft | 479 kts | 25° |
| 2026-04-24 20:29 | 33.40737 | -8.20708 | 37114 ft | 480 kts | 25° |
| 2026-04-24 20:30 | 33.46393 | -8.16430 | 37120 ft | 481 kts | 25° |
| 2026-04-24 20:30 | 33.52024 | -8.12164 | 37117 ft | 481 kts | 25° |
| 2026-04-24 20:31 | 33.57652 | -8.07893 | 37117 ft | 480 kts | 25° |
| 2026-04-24 20:31 | 33.63276 | -8.03619 | 37112 ft | 479 kts | 25° |
| 2026-04-24 20:32 | 33.68874 | -7.99359 | 37114 ft | 478 kts | 25° |
| 2026-04-24 20:32 | 33.74452 | -7.95108 | 37123 ft | 478 kts | 25° |
| 2026-04-24 20:33 | 33.80046 | -7.90838 | 37130 ft | 477 kts | 25° |
| 2026-04-24 20:33 | 33.85632 | -7.86566 | 37122 ft | 475 kts | 25° |
| 2026-04-24 20:34 | 33.91199 | -7.82304 | 37103 ft | 475 kts | 25° |
| 2026-04-24 20:34 | 33.96772 | -7.78030 | 37119 ft | 475 kts | 25° |
| 2026-04-24 20:35 | 34.02334 | -7.73758 | 37128 ft | 474 kts | 25° |
| 2026-04-24 20:35 | 34.07893 | -7.69481 | 37122 ft | 473 kts | 25° |
| 2026-04-24 20:36 | 34.13439 | -7.65207 | 37126 ft | 473 kts | 25° |
| 2026-04-24 20:36 | 34.18972 | -7.60936 | 37128 ft | 472 kts | 25° |
| 2026-04-24 20:37 | 34.24501 | -7.56663 | 37165 ft | 473 kts | 26° |
| 2026-04-24 20:37 | 34.30034 | -7.52379 | 37132 ft | 473 kts | 26° |
| 2026-04-24 20:38 | 34.35549 | -7.48101 | 37130 ft | 472 kts | 26° |
| 2026-04-24 20:38 | 34.41076 | -7.43808 | 37131 ft | 471 kts | 26° |
| 2026-04-24 20:39 | 34.46568 | -7.39535 | 37127 ft | 471 kts | 26° |
| 2026-04-24 20:39 | 34.52078 | -7.35242 | 37149 ft | 471 kts | 26° |
| 2026-04-24 20:40 | 34.57586 | -7.30944 | 37130 ft | 470 kts | 26° |
| 2026-04-24 20:40 | 34.63068 | -7.26658 | 37127 ft | 470 kts | 26° |
| 2026-04-24 20:41 | 34.68543 | -7.22372 | 37130 ft | 469 kts | 26° |
| 2026-04-24 20:41 | 34.74041 | -7.18060 | 37135 ft | 470 kts | 27° |
| 2026-04-24 20:42 | 34.79537 | -7.13745 | 37153 ft | 471 kts | 27° |
| 2026-04-24 20:42 | 34.84997 | -7.09450 | 37134 ft | 471 kts | 27° |
| 2026-04-24 20:43 | 34.90480 | -7.05128 | 37130 ft | 471 kts | 27° |
| 2026-04-24 20:43 | 34.95976 | -7.00789 | 37131 ft | 471 kts | 27° |
| 2026-04-24 20:44 | 35.01459 | -6.96455 | 37125 ft | 471 kts | 27° |
| 2026-04-24 20:44 | 35.06959 | -6.92100 | 37140 ft | 471 kts | 27° |
| 2026-04-24 20:45 | 35.11519 | -6.88484 | 37123 ft | 471 kts | 27° |
| 2026-04-24 20:45 | 35.17010 | -6.84122 | 37147 ft | 471 kts | 28° |
| 2026-04-24 20:46 | 35.22525 | -6.79736 | 37130 ft | 472 kts | 28° |
| 2026-04-24 20:46 | 35.27969 | -6.75396 | 37125 ft | 473 kts | 28° |
| 2026-04-24 20:47 | 35.33484 | -6.70995 | 37122 ft | 474 kts | 29° |
| 2026-04-24 20:47 | 35.39012 | -6.66660 | 37116 ft | 474 kts | 28° |
| 2026-04-24 20:48 | 35.44601 | -6.62384 | 37113 ft | 475 kts | 28° |
| 2026-04-24 20:48 | 35.50208 | -6.58081 | 37113 ft | 476 kts | 28° |
| 2026-04-24 20:49 | 35.55804 | -6.53761 | 37103 ft | 476 kts | 28° |
| 2026-04-24 20:49 | 35.61388 | -6.49436 | 37113 ft | 477 kts | 29° |
| 2026-04-24 20:50 | 35.67001 | -6.45084 | 37121 ft | 477 kts | 29° |
| 2026-04-24 20:50 | 35.72620 | -6.40719 | 37112 ft | 478 kts | 29° |
| 2026-04-24 20:51 | 35.78226 | -6.36356 | 37105 ft | 478 kts | 30° |
| 2026-04-24 20:51 | 35.83843 | -6.31978 | 37112 ft | 478 kts | 30° |
| 2026-04-24 20:52 | 35.89328 | -6.27386 | 37126 ft | 479 kts | 32° |
| 2026-04-24 20:52 | 35.94781 | -6.22646 | 37125 ft | 479 kts | 32° |
| 2026-04-24 20:53 | 36.00243 | -6.17933 | 37126 ft | 479 kts | 32° |
| 2026-04-24 20:53 | 36.05665 | -6.13285 | 37126 ft | 479 kts | 32° |
| 2026-04-24 20:54 | 36.11137 | -6.08592 | 37145 ft | 479 kts | 33° |
| 2026-04-24 20:54 | 36.16610 | -6.03885 | 37130 ft | 479 kts | 33° |
| 2026-04-24 20:55 | 36.22080 | -5.99167 | 37124 ft | 480 kts | 34° |
| 2026-04-24 20:55 | 36.27138 | -5.93744 | 37121 ft | 482 kts | 44° |
| 2026-04-24 20:56 | 36.31828 | -5.87791 | 37120 ft | 483 kts | 44° |
| 2026-04-24 20:56 | 36.36520 | -5.81820 | 37119 ft | 483 kts | 44° |
| 2026-04-24 20:57 | 36.41235 | -5.75869 | 37124 ft | 484 kts | 44° |
| 2026-04-24 20:57 | 36.45958 | -5.69924 | 37129 ft | 484 kts | 44° |
| 2026-04-24 20:58 | 36.50690 | -5.63959 | 37125 ft | 485 kts | 45° |
| 2026-04-24 20:58 | 36.55374 | -5.58042 | 37121 ft | 485 kts | 45° |
| 2026-04-24 20:59 | 36.60107 | -5.52049 | 37126 ft | 486 kts | 45° |
| 2026-04-24 20:59 | 36.64828 | -5.46062 | 37126 ft | 486 kts | 45° |
| 2026-04-24 21:00 | 36.69558 | -5.40051 | 37124 ft | 486 kts | 45° |
| 2026-04-24 21:00 | 36.74255 | -5.34071 | 37121 ft | 486 kts | 45° |
| 2026-04-24 21:01 | 36.78974 | -5.28053 | 37130 ft | 484 kts | 46° |
| 2026-04-24 21:01 | 36.83666 | -5.22055 | 37113 ft | 483 kts | 46° |
| 2026-04-24 21:02 | 36.88342 | -5.16069 | 37113 ft | 482 kts | 46° |
| 2026-04-24 21:02 | 36.93001 | -5.10093 | 37118 ft | 480 kts | 46° |
| 2026-04-24 21:03 | 36.97641 | -5.04128 | 37109 ft | 479 kts | 46° |
| 2026-04-24 21:03 | 37.02256 | -4.98208 | 37116 ft | 478 kts | 44° |
| 2026-04-24 21:04 | 37.07547 | -4.93191 | 37116 ft | 478 kts | 31° |
| 2026-04-24 21:04 | 37.13562 | -4.89636 | 37107 ft | 480 kts | 22° |
| 2026-04-24 21:05 | 37.19745 | -4.86507 | 37121 ft | 480 kts | 22° |
| 2026-04-24 21:05 | 37.25923 | -4.83350 | 37115 ft | 481 kts | 23° |
| 2026-04-24 21:06 | 37.32089 | -4.80140 | 37110 ft | 481 kts | 23° |
| 2026-04-24 21:06 | 37.38258 | -4.76905 | 37106 ft | 482 kts | 24° |
| 2026-04-24 21:07 | 37.44425 | -4.73665 | 37114 ft | 482 kts | 23° |
| 2026-04-24 21:07 | 37.50598 | -4.70418 | 37121 ft | 482 kts | 23° |
| 2026-04-24 21:08 | 37.56782 | -4.67161 | 37116 ft | 483 kts | 23° |
| 2026-04-24 21:08 | 37.62975 | -4.63893 | 37107 ft | 483 kts | 24° |
| 2026-04-24 21:09 | 37.69164 | -4.60621 | 37113 ft | 483 kts | 24° |
| 2026-04-24 21:09 | 37.75296 | -4.57373 | 37105 ft | 483 kts | 24° |
| 2026-04-24 21:10 | 37.81500 | -4.54080 | 37111 ft | 483 kts | 24° |
| 2026-04-24 21:10 | 37.87698 | -4.50788 | 37105 ft | 483 kts | 24° |
| 2026-04-24 21:11 | 37.93898 | -4.47494 | 37113 ft | 483 kts | 24° |
| 2026-04-24 21:11 | 38.00071 | -4.44208 | 37112 ft | 483 kts | 24° |
| 2026-04-24 21:12 | 38.05228 | -4.41458 | 37108 ft | 483 kts | 24° |
| 2026-04-24 21:12 | 38.12469 | -4.37588 | 37105 ft | 484 kts | 24° |
| 2026-04-24 21:13 | 38.18673 | -4.34250 | 37106 ft | 483 kts | 24° |
| 2026-04-24 21:13 | 38.24860 | -4.30911 | 37112 ft | 483 kts | 24° |
| 2026-04-24 21:14 | 38.31052 | -4.27565 | 37107 ft | 483 kts | 24° |
| 2026-04-24 21:14 | 38.37203 | -4.24236 | 37111 ft | 484 kts | 24° |
| 2026-04-24 21:15 | 38.43393 | -4.20880 | 37107 ft | 484 kts | 24° |
| 2026-04-24 21:15 | 38.49584 | -4.17517 | 37106 ft | 484 kts | 24° |
| 2026-04-24 21:16 | 38.55764 | -4.14154 | 37114 ft | 483 kts | 24° |
| 2026-04-24 21:16 | 38.61935 | -4.10788 | 37108 ft | 484 kts | 25° |
| 2026-04-24 21:17 | 38.68100 | -4.07419 | 37114 ft | 484 kts | 25° |
| 2026-04-24 21:17 | 38.73241 | -4.04606 | 37114 ft | 484 kts | 25° |
| 2026-04-24 21:18 | 38.80484 | -4.00639 | 37112 ft | 484 kts | 25° |
| 2026-04-24 21:18 | 38.86677 | -3.97240 | 37104 ft | 484 kts | 25° |
| 2026-04-24 21:19 | 38.92851 | -3.93842 | 37117 ft | 484 kts | 25° |
| 2026-04-24 21:19 | 38.99045 | -3.90429 | 37113 ft | 484 kts | 25° |
| 2026-04-24 21:20 | 39.08332 | -3.85311 | 37099 ft | 485 kts | 25° |
| 2026-04-24 21:21 | 39.14530 | -3.81891 | 37115 ft | 485 kts | 25° |
| 2026-04-24 21:21 | 39.20735 | -3.78458 | 37111 ft | 485 kts | 25° |
| 2026-04-24 21:22 | 39.26936 | -3.75020 | 37118 ft | 486 kts | 25° |
| 2026-04-24 21:22 | 39.33058 | -3.71620 | 37104 ft | 486 kts | 25° |
| 2026-04-24 21:23 | 39.39242 | -3.68178 | 37106 ft | 486 kts | 25° |
| 2026-04-24 21:23 | 39.45424 | -3.64731 | 37109 ft | 486 kts | 25° |
| 2026-04-24 21:24 | 39.51620 | -3.61269 | 37108 ft | 486 kts | 25° |
| 2026-04-24 21:24 | 39.57812 | -3.57803 | 37095 ft | 486 kts | 25° |
| 2026-04-24 21:25 | 39.64013 | -3.54327 | 37101 ft | 487 kts | 25° |
| 2026-04-24 21:25 | 39.70232 | -3.50833 | 37106 ft | 487 kts | 25° |
| 2026-04-24 21:26 | 39.76430 | -3.47331 | 37100 ft | 487 kts | 27° |
| 2026-04-24 21:26 | 39.82252 | -3.43008 | 37095 ft | 485 kts | 36° |
| 2026-04-24 21:27 | 39.87840 | -3.38118 | 37094 ft | 485 kts | 36° |
| 2026-04-24 21:27 | 39.93427 | -3.33232 | 37104 ft | 486 kts | 36° |
| 2026-04-24 21:28 | 39.99064 | -3.28353 | 37091 ft | 487 kts | 36° |
| 2026-04-24 21:28 | 40.04680 | -3.23501 | 37103 ft | 487 kts | 36° |
| 2026-04-24 21:29 | 40.10317 | -3.18620 | 37101 ft | 488 kts | 36° |
| 2026-04-24 21:29 | 40.15861 | -3.13806 | 37108 ft | 489 kts | 36° |
| 2026-04-24 21:30 | 40.21601 | -3.08811 | 37095 ft | 490 kts | 36° |
| 2026-04-24 21:30 | 40.27254 | -3.03884 | 37110 ft | 490 kts | 36° |
| 2026-04-24 21:31 | 40.32911 | -2.98952 | 37113 ft | 489 kts | 36° |
| 2026-04-24 21:31 | 40.38577 | -2.94003 | 37117 ft | 489 kts | 36° |
| 2026-04-24 21:32 | 40.44235 | -2.89050 | 37117 ft | 489 kts | 36° |
| 2026-04-24 21:32 | 40.48933 | -2.84928 | 37120 ft | 488 kts | 36° |
| 2026-04-24 21:33 | 40.54546 | -2.79994 | 37125 ft | 488 kts | 36° |
| 2026-04-24 21:33 | 40.60151 | -2.75058 | 37118 ft | 488 kts | 36° |
| 2026-04-24 21:34 | 40.65790 | -2.70081 | 37108 ft | 488 kts | 36° |
| 2026-04-24 21:34 | 40.71422 | -2.65098 | 37119 ft | 489 kts | 35° |
| 2026-04-24 21:35 | 40.77054 | -2.60107 | 37124 ft | 489 kts | 35° |
| 2026-04-24 21:35 | 40.82692 | -2.55100 | 37125 ft | 489 kts | 36° |
| 2026-04-24 21:36 | 40.88331 | -2.50081 | 37131 ft | 489 kts | 36° |
| 2026-04-24 21:36 | 40.93959 | -2.45061 | 37128 ft | 490 kts | 36° |
| 2026-04-24 21:37 | 40.99581 | -2.40037 | 37139 ft | 491 kts | 36° |
| 2026-04-24 21:37 | 41.05114 | -2.34744 | 37141 ft | 491 kts | 40° |
| 2026-04-24 21:38 | 41.10433 | -2.29082 | 37137 ft | 491 kts | 40° |
| 2026-04-24 21:38 | 41.15749 | -2.23370 | 37137 ft | 492 kts | 40° |
| 2026-04-24 21:39 | 41.21082 | -2.17669 | 37131 ft | 492 kts | 40° |
| 2026-04-24 21:39 | 41.26423 | -2.11971 | 37134 ft | 493 kts | 40° |
| 2026-04-24 21:40 | 41.31770 | -2.06259 | 37135 ft | 493 kts | 40° |
| 2026-04-24 21:40 | 41.37113 | -2.00538 | 37134 ft | 493 kts | 40° |
| 2026-04-24 21:41 | 41.42441 | -1.94819 | 37124 ft | 493 kts | 40° |
| 2026-04-24 21:41 | 41.47784 | -1.89071 | 37130 ft | 493 kts | 40° |
| 2026-04-24 21:42 | 41.53111 | -1.83328 | 37123 ft | 492 kts | 40° |
| 2026-04-24 21:42 | 41.58405 | -1.77607 | 37121 ft | 491 kts | 40° |
| 2026-04-24 21:43 | 41.63691 | -1.71883 | 37120 ft | 490 kts | 40° |
| 2026-04-24 21:43 | 41.68965 | -1.66160 | 37116 ft | 489 kts | 40° |
| 2026-04-24 21:44 | 41.74227 | -1.60437 | 37113 ft | 488 kts | 40° |
| 2026-04-24 21:44 | 41.79495 | -1.54693 | 37120 ft | 488 kts | 40° |
| 2026-04-24 21:45 | 41.84730 | -1.48975 | 37113 ft | 486 kts | 40° |
| 2026-04-24 21:45 | 41.89973 | -1.43236 | 37103 ft | 485 kts | 40° |
| 2026-04-24 21:46 | 41.95199 | -1.37502 | 37105 ft | 485 kts | 40° |
| 2026-04-24 21:46 | 42.00407 | -1.31774 | 37109 ft | 484 kts | 40° |
| 2026-04-24 21:47 | 42.05593 | -1.26059 | 37108 ft | 484 kts | 40° |
| 2026-04-24 21:47 | 42.10759 | -1.20354 | 37112 ft | 483 kts | 40° |
| 2026-04-24 21:48 | 42.15951 | -1.14599 | 37111 ft | 484 kts | 40° |
| 2026-04-24 21:48 | 42.21104 | -1.08870 | 37119 ft | 483 kts | 40° |
| 2026-04-24 21:49 | 42.26282 | -1.03101 | 37114 ft | 482 kts | 40° |
| 2026-04-24 21:49 | 42.31445 | -0.97337 | 37115 ft | 482 kts | 40° |
| 2026-04-24 21:50 | 42.36606 | -0.91562 | 37117 ft | 481 kts | 40° |
| 2026-04-24 21:50 | 42.41722 | -0.85739 | 37115 ft | 481 kts | 43° |
| 2026-04-24 21:51 | 42.46178 | -0.78996 | 37131 ft | 480 kts | 53° |
| 2026-04-24 21:51 | 42.50217 | -0.71779 | 37134 ft | 481 kts | 53° |
| 2026-04-24 21:52 | 42.54267 | -0.64554 | 37128 ft | 482 kts | 53° |
| 2026-04-24 21:52 | 42.58350 | -0.57335 | 37147 ft | 482 kts | 53° |
| 2026-04-24 21:53 | 42.62436 | -0.50117 | 37142 ft | 483 kts | 53° |
| 2026-04-24 21:53 | 42.66532 | -0.42861 | 37164 ft | 484 kts | 53° |
| 2026-04-24 21:54 | 42.70626 | -0.35588 | 37160 ft | 485 kts | 53° |
| 2026-04-24 21:54 | 42.74726 | -0.28288 | 37173 ft | 486 kts | 53° |
| 2026-04-24 21:55 | 42.79075 | -0.21264 | 37177 ft | 486 kts | 43° |
| 2026-04-24 21:55 | 42.84404 | -0.15720 | 37160 ft | 486 kts | 30° |
| 2026-04-24 21:56 | 42.90333 | -0.11306 | 37165 ft | 486 kts | 28° |
| 2026-04-24 21:56 | 42.96300 | -0.06962 | 37164 ft | 486 kts | 28° |
| 2026-04-24 21:57 | 43.02245 | -0.02567 | 37164 ft | 486 kts | 28° |
| 2026-04-24 21:57 | 43.08173 | 0.01873 | 37165 ft | 486 kts | 28° |
| 2026-04-24 21:58 | 43.14099 | 0.06333 | 37180 ft | 486 kts | 28° |
| 2026-04-24 21:58 | 43.19977 | 0.10766 | 37164 ft | 486 kts | 28° |
| 2026-04-24 21:59 | 43.25893 | 0.15237 | 37161 ft | 486 kts | 28° |
| 2026-04-24 21:59 | 43.31827 | 0.19728 | 37166 ft | 487 kts | 28° |
| 2026-04-24 22:00 | 43.37754 | 0.24226 | 37152 ft | 488 kts | 28° |
| 2026-04-24 22:00 | 43.43697 | 0.28745 | 37151 ft | 489 kts | 28° |
| 2026-04-24 22:01 | 43.49647 | 0.33280 | 37154 ft | 490 kts | 28° |
| 2026-04-24 22:01 | 43.55613 | 0.37837 | 37138 ft | 491 kts | 28° |
| 2026-04-24 22:02 | 43.61584 | 0.42410 | 37132 ft | 490 kts | 28° |
| 2026-04-24 22:02 | 43.67468 | 0.46925 | 37124 ft | 489 kts | 28° |
| 2026-04-24 22:03 | 43.73442 | 0.51520 | 37127 ft | 487 kts | 28° |
| 2026-04-24 22:03 | 43.79317 | 0.56050 | 37127 ft | 486 kts | 28° |
| 2026-04-24 22:04 | 43.85199 | 0.60594 | 37132 ft | 485 kts | 28° |
| 2026-04-24 22:04 | 43.91069 | 0.65140 | 37112 ft | 484 kts | 28° |
| 2026-04-24 22:05 | 43.96946 | 0.69702 | 37108 ft | 484 kts | 28° |
| 2026-04-24 22:05 | 44.02816 | 0.74269 | 37116 ft | 484 kts | 28° |
| 2026-04-24 22:06 | 44.08691 | 0.78850 | 37105 ft | 484 kts | 28° |
| 2026-04-24 22:06 | 44.14563 | 0.83439 | 37110 ft | 484 kts | 28° |
| 2026-04-24 22:07 | 44.20442 | 0.88045 | 37109 ft | 485 kts | 28° |
| 2026-04-24 22:07 | 44.26320 | 0.92661 | 37112 ft | 485 kts | 28° |
| 2026-04-24 22:08 | 44.32208 | 0.97294 | 37125 ft | 485 kts | 28° |
| 2026-04-24 22:08 | 44.38087 | 1.01932 | 37119 ft | 486 kts | 28° |
| 2026-04-24 22:09 | 44.43974 | 1.06587 | 37125 ft | 486 kts | 28° |
| 2026-04-24 22:09 | 44.49821 | 1.11222 | 37121 ft | 486 kts | 28° |
| 2026-04-24 22:10 | 44.55707 | 1.15897 | 37123 ft | 486 kts | 28° |
| 2026-04-24 22:10 | 44.61582 | 1.20576 | 37126 ft | 486 kts | 28° |
| 2026-04-24 22:11 | 44.67458 | 1.25266 | 37124 ft | 485 kts | 28° |
| 2026-04-24 22:11 | 44.73316 | 1.29953 | 37123 ft | 485 kts | 28° |
| 2026-04-24 22:12 | 44.79180 | 1.34656 | 37122 ft | 484 kts | 28° |
| 2026-04-24 22:12 | 44.85029 | 1.39357 | 37125 ft | 484 kts | 28° |
| 2026-04-24 22:13 | 44.90780 | 1.44304 | 37119 ft | 485 kts | 35° |
| 2026-04-24 22:13 | 44.96094 | 1.50163 | 37117 ft | 486 kts | 37° |
| 2026-04-24 22:14 | 45.01329 | 1.56089 | 37136 ft | 486 kts | 37° |
| 2026-04-24 22:14 | 45.06615 | 1.62038 | 37132 ft | 486 kts | 37° |
| 2026-04-24 22:15 | 45.11915 | 1.67970 | 37122 ft | 486 kts | 37° |
| 2026-04-24 22:15 | 45.17224 | 1.73911 | 37129 ft | 486 kts | 37° |
| 2026-04-24 22:16 | 45.22511 | 1.79844 | 37129 ft | 487 kts | 37° |
| 2026-04-24 22:16 | 45.27809 | 1.85805 | 37136 ft | 487 kts | 37° |
| 2026-04-24 22:17 | 45.33107 | 1.91781 | 37131 ft | 488 kts | 37° |
| 2026-04-24 22:17 | 45.38415 | 1.97785 | 37140 ft | 488 kts | 37° |
| 2026-04-24 22:18 | 45.43722 | 2.03803 | 37138 ft | 488 kts | 37° |
| 2026-04-24 22:18 | 45.49022 | 2.09828 | 37135 ft | 487 kts | 37° |
| 2026-04-24 22:19 | 45.54306 | 2.15848 | 37141 ft | 487 kts | 37° |
| 2026-04-24 22:19 | 45.59596 | 2.21890 | 37149 ft | 487 kts | 37° |
| 2026-04-24 22:20 | 45.63991 | 2.26922 | 37147 ft | 487 kts | 37° |
| 2026-04-24 22:20 | 45.69266 | 2.32976 | 37148 ft | 487 kts | 37° |
| 2026-04-24 22:21 | 45.74546 | 2.39049 | 37152 ft | 487 kts | 37° |
| 2026-04-24 22:21 | 45.79821 | 2.45133 | 37149 ft | 486 kts | 37° |
| 2026-04-24 22:22 | 45.85080 | 2.51213 | 37147 ft | 486 kts | 37° |
| 2026-04-24 22:22 | 45.90335 | 2.57304 | 37144 ft | 485 kts | 37° |
| 2026-04-24 22:23 | 45.95556 | 2.63370 | 37151 ft | 485 kts | 37° |
| 2026-04-24 22:23 | 46.00793 | 2.69471 | 37138 ft | 485 kts | 37° |
| 2026-04-24 22:24 | 46.06035 | 2.75592 | 37139 ft | 485 kts | 37° |
| 2026-04-24 22:24 | 46.11267 | 2.81717 | 37137 ft | 485 kts | 37° |
| 2026-04-24 22:25 | 46.16508 | 2.87869 | 37126 ft | 486 kts | 36° |
| 2026-04-24 22:25 | 46.21792 | 2.94085 | 37125 ft | 487 kts | 36° |
| 2026-04-24 22:26 | 46.27009 | 3.00240 | 37119 ft | 487 kts | 36° |
| 2026-04-24 22:26 | 46.32257 | 3.06448 | 37124 ft | 488 kts | 37° |
| 2026-04-24 22:27 | 46.37510 | 3.12676 | 37119 ft | 488 kts | 36° |
| 2026-04-24 22:27 | 46.42753 | 3.18909 | 37119 ft | 488 kts | 37° |
| 2026-04-24 22:28 | 46.48000 | 3.25163 | 37120 ft | 489 kts | 37° |
| 2026-04-24 22:28 | 46.53254 | 3.31442 | 37141 ft | 489 kts | 37° |
| 2026-04-24 22:29 | 46.61135 | 3.40891 | 37128 ft | 490 kts | 37° |
| 2026-04-24 22:29 | 46.66339 | 3.47314 | 37123 ft | 491 kts | 40° |
| 2026-04-24 22:30 | 46.71316 | 3.54156 | 37134 ft | 492 kts | 41° |
| 2026-04-24 22:30 | 46.76211 | 3.61028 | 37140 ft | 492 kts | 41° |
| 2026-04-24 22:31 | 46.81174 | 3.67972 | 37134 ft | 491 kts | 41° |
| 2026-04-24 22:31 | 46.86108 | 3.74853 | 37135 ft | 491 kts | 41° |
| 2026-04-24 22:32 | 46.91017 | 3.81707 | 37163 ft | 491 kts | 41° |
| 2026-04-24 22:32 | 46.95952 | 3.88614 | 37146 ft | 491 kts | 41° |
| 2026-04-24 22:33 | 47.00880 | 3.95534 | 37141 ft | 490 kts | 41° |
| 2026-04-24 22:33 | 47.05788 | 4.02444 | 37143 ft | 489 kts | 41° |
| 2026-04-24 22:34 | 47.10687 | 4.09361 | 37149 ft | 488 kts | 41° |
| 2026-04-24 22:34 | 47.15568 | 4.16269 | 37151 ft | 489 kts | 42° |
| 2026-04-24 22:35 | 47.20465 | 4.23220 | 37153 ft | 490 kts | 42° |
| 2026-04-24 22:35 | 47.25377 | 4.30212 | 37154 ft | 492 kts | 42° |
| 2026-04-24 22:36 | 47.30295 | 4.37230 | 37171 ft | 493 kts | 42° |
| 2026-04-24 22:36 | 47.35222 | 4.44279 | 37139 ft | 494 kts | 43° |
| 2026-04-24 22:37 | 47.40152 | 4.51356 | 37140 ft | 495 kts | 43° |
| 2026-04-24 22:37 | 47.45079 | 4.58446 | 37138 ft | 495 kts | 43° |
| 2026-04-24 22:38 | 47.50015 | 4.65568 | 37169 ft | 496 kts | 44° |
| 2026-04-24 22:38 | 47.54948 | 4.72708 | 37147 ft | 498 kts | 44° |
| 2026-04-24 22:39 | 47.59899 | 4.79890 | 37146 ft | 499 kts | 44° |
| 2026-04-24 22:39 | 47.64851 | 4.87096 | 37142 ft | 499 kts | 44° |
| 2026-04-24 22:40 | 47.69793 | 4.94309 | 37154 ft | 499 kts | 44° |
| 2026-04-24 22:40 | 47.74739 | 5.01546 | 37138 ft | 498 kts | 44° |
| 2026-04-24 22:41 | 47.79661 | 5.08770 | 37129 ft | 497 kts | 45° |
| 2026-04-24 22:41 | 47.84568 | 5.15991 | 37159 ft | 497 kts | 45° |
| 2026-04-24 22:42 | 47.89726 | 5.22860 | 37160 ft | 498 kts | 35° |
| 2026-04-24 22:42 | 47.95782 | 5.27868 | 37138 ft | 499 kts | 21° |
| 2026-04-24 22:43 | 48.02274 | 5.31346 | 37146 ft | 499 kts | 18° |
| 2026-04-24 22:43 | 48.08881 | 5.34759 | 37146 ft | 500 kts | 19° |
| 2026-04-24 22:44 | 48.15411 | 5.38211 | 37163 ft | 500 kts | 19° |
| 2026-04-24 22:44 | 48.21949 | 5.41733 | 37151 ft | 499 kts | 19° |
| 2026-04-24 22:45 | 48.28473 | 5.45271 | 37155 ft | 498 kts | 19° |
| 2026-04-24 22:45 | 48.34978 | 5.48805 | 37167 ft | 496 kts | 20° |
| 2026-04-24 22:46 | 48.41468 | 5.52338 | 37168 ft | 495 kts | 20° |
| 2026-04-24 22:46 | 48.47937 | 5.55868 | 37167 ft | 494 kts | 20° |
| 2026-04-24 22:47 | 48.54385 | 5.59396 | 37173 ft | 493 kts | 20° |
| 2026-04-24 22:47 | 48.60821 | 5.62926 | 37167 ft | 491 kts | 20° |
| 2026-04-24 22:48 | 48.67247 | 5.66462 | 37142 ft | 491 kts | 19° |
| 2026-04-24 22:48 | 48.73672 | 5.70006 | 37167 ft | 493 kts | 19° |
| 2026-04-24 22:49 | 48.80135 | 5.73580 | 37173 ft | 495 kts | 19° |
| 2026-04-24 22:49 | 48.86613 | 5.77174 | 37180 ft | 497 kts | 19° |
| 2026-04-24 22:50 | 48.93110 | 5.80788 | 37181 ft | 498 kts | 19° |
| 2026-04-24 22:50 | 48.99615 | 5.84416 | 37186 ft | 498 kts | 19° |
| 2026-04-24 22:51 | 49.06069 | 5.88026 | 37185 ft | 497 kts | 19° |
| 2026-04-24 22:51 | 49.12546 | 5.91659 | 37182 ft | 495 kts | 19° |
| 2026-04-24 22:52 | 49.18997 | 5.95287 | 37184 ft | 494 kts | 19° |
| 2026-04-24 22:52 | 49.25436 | 5.98919 | 37181 ft | 493 kts | 19° |
| 2026-04-24 22:53 | 49.31844 | 6.02543 | 37183 ft | 492 kts | 19° |
| 2026-04-24 22:53 | 49.38259 | 6.06182 | 37192 ft | 491 kts | 19° |
| 2026-04-24 22:54 | 49.44684 | 6.09708 | 37169 ft | 490 kts | 14° |
| 2026-04-24 22:54 | 49.51337 | 6.11679 | 37194 ft | 486 kts | 3° |
| 2026-04-24 22:55 | 49.57941 | 6.12040 | 37178 ft | 484 kts | 359° |
| 2026-04-24 22:55 | 49.64663 | 6.12187 | 37183 ft | 484 kts | 359° |
| 2026-04-24 22:56 | 49.71390 | 6.12418 | 37183 ft | 484 kts | 359° |
| 2026-04-24 22:56 | 49.78118 | 6.12687 | 37184 ft | 484 kts | 359° |
| 2026-04-24 22:57 | 49.84823 | 6.13471 | 37191 ft | 486 kts | 8° |
| 2026-04-24 22:57 | 49.88144 | 6.14660 | 36576 ft | 495 kts | 14° |
| 2026-04-24 22:57 | 49.91403 | 6.16447 | 35798 ft | 498 kts | 22° |
| 2026-04-24 22:58 | 49.94553 | 6.18715 | 34953 ft | 499 kts | 24° |
| 2026-04-24 22:58 | 49.97691 | 6.21042 | 34067 ft | 500 kts | 24° |
| 2026-04-24 22:58 | 50.00832 | 6.23378 | 33056 ft | 502 kts | 24° |
| 2026-04-24 22:58 | 50.03990 | 6.25719 | 32093 ft | 503 kts | 23° |
| 2026-04-24 22:59 | 50.07156 | 6.28055 | 31079 ft | 505 kts | 23° |
| 2026-04-24 22:59 | 50.10208 | 6.30302 | 30354 ft | 502 kts | 23° |
| 2026-04-24 22:59 | 50.16464 | 6.34908 | 28883 ft | 492 kts | 23° |
| 2026-04-24 23:00 | 50.19536 | 6.37174 | 28244 ft | 486 kts | 23° |
| 2026-04-24 23:00 | 50.22578 | 6.39420 | 27623 ft | 481 kts | 23° |
| 2026-04-24 23:00 | 50.25589 | 6.41649 | 27000 ft | 476 kts | 22° |
| 2026-04-24 23:00 | 50.28570 | 6.43856 | 26373 ft | 472 kts | 22° |
| 2026-04-24 23:01 | 50.31530 | 6.46051 | 25771 ft | 469 kts | 22° |
| 2026-04-24 23:01 | 50.34462 | 6.48233 | 25160 ft | 465 kts | 23° |
| 2026-04-24 23:01 | 50.37313 | 6.50632 | 24538 ft | 465 kts | 29° |
| 2026-04-24 23:01 | 50.40009 | 6.53408 | 23932 ft | 463 kts | 31° |
| 2026-04-24 23:02 | 50.42665 | 6.56236 | 23262 ft | 460 kts | 32° |
| 2026-04-24 23:02 | 50.45300 | 6.59039 | 22639 ft | 456 kts | 32° |
| 2026-04-24 23:02 | 50.47923 | 6.61807 | 22057 ft | 451 kts | 31° |
| 2026-04-24 23:02 | 50.50517 | 6.64520 | 21494 ft | 446 kts | 31° |
| 2026-04-24 23:03 | 50.53085 | 6.67202 | 20932 ft | 441 kts | 31° |
| 2026-04-24 23:03 | 50.55627 | 6.69859 | 20384 ft | 437 kts | 31° |
| 2026-04-24 23:03 | 50.58157 | 6.72485 | 19846 ft | 432 kts | 31° |
| 2026-04-24 23:03 | 50.60658 | 6.75078 | 19310 ft | 429 kts | 31° |
| 2026-04-24 23:04 | 50.63064 | 6.77815 | 18789 ft | 426 kts | 36° |
| 2026-04-24 23:04 | 50.65337 | 6.80782 | 18219 ft | 423 kts | 38° |
| 2026-04-24 23:04 | 50.67566 | 6.83786 | 17645 ft | 419 kts | 38° |
| 2026-04-24 23:04 | 50.69768 | 6.86688 | 17486 ft | 406 kts | 37° |
| 2026-04-24 23:05 | 50.71921 | 6.89470 | 17297 ft | 394 kts | 37° |
| 2026-04-24 23:05 | 50.73998 | 6.92191 | 17135 ft | 384 kts | 40° |
| 2026-04-24 23:05 | 50.75817 | 6.95183 | 16937 ft | 371 kts | 52° |
| 2026-04-24 23:05 | 50.76846 | 6.98848 | 16798 ft | 364 kts | 78° |
| 2026-04-24 23:06 | 50.76959 | 7.02781 | 16656 ft | 356 kts | 97° |
| 2026-04-24 23:06 | 50.76368 | 7.06512 | 16517 ft | 347 kts | 111° |
| 2026-04-24 23:06 | 50.75302 | 7.09857 | 16363 ft | 337 kts | 127° |
| 2026-04-24 23:06 | 50.73736 | 7.12477 | 16223 ft | 324 kts | 140° |
| 2026-04-24 23:07 | 50.72048 | 7.14822 | 16008 ft | 319 kts | 141° |
| 2026-04-24 23:07 | 50.70397 | 7.17120 | 15812 ft | 313 kts | 140° |
| 2026-04-24 23:07 | 50.69338 | 7.18618 | 15722 ft | 306 kts | 140° |
| 2026-04-24 23:07 | 50.67767 | 7.20855 | 15300 ft | 307 kts | 139° |
| 2026-04-24 23:08 | 50.66165 | 7.23149 | 14777 ft | 312 kts | 139° |
| 2026-04-24 23:08 | 50.64586 | 7.25419 | 14581 ft | 303 kts | 139° |
| 2026-04-24 23:08 | 50.63057 | 7.27618 | 14349 ft | 292 kts | 139° |
| 2026-04-24 23:08 | 50.61552 | 7.29779 | 13719 ft | 292 kts | 139° |
| 2026-04-24 23:09 | 50.60079 | 7.31892 | 13338 ft | 280 kts | 139° |
| 2026-04-24 23:09 | 50.58652 | 7.33936 | 13015 ft | 275 kts | 139° |
| 2026-04-24 23:09 | 50.57247 | 7.35949 | 12707 ft | 271 kts | 139° |
| 2026-04-24 23:09 | 50.55866 | 7.37925 | 12409 ft | 265 kts | 139° |
| 2026-04-24 23:10 | 50.54518 | 7.39851 | 12127 ft | 260 kts | 138° |
| 2026-04-24 23:10 | 50.53178 | 7.41764 | 11858 ft | 261 kts | 138° |
| 2026-04-24 23:10 | 50.51820 | 7.43703 | 11591 ft | 268 kts | 138° |
| 2026-04-24 23:10 | 50.50459 | 7.45642 | 11307 ft | 271 kts | 138° |
| 2026-04-24 23:11 | 50.49039 | 7.47665 | 10986 ft | 268 kts | 138° |
| 2026-04-24 23:11 | 50.47668 | 7.49618 | 10699 ft | 264 kts | 138° |
| 2026-04-24 23:11 | 50.46344 | 7.51537 | 10406 ft | 256 kts | 132° |
| 2026-04-24 23:11 | 50.45523 | 7.53855 | 10141 ft | 246 kts | 100° |
| 2026-04-24 23:12 | 50.45570 | 7.56528 | 9936 ft | 249 kts | 73° |
| 2026-04-24 23:12 | 50.46301 | 7.59046 | 9666 ft | 253 kts | 52° |
| 2026-04-24 23:12 | 50.47436 | 7.61154 | 9403 ft | 252 kts | 46° |
| 2026-04-24 23:12 | 50.48634 | 7.63121 | 9116 ft | 244 kts | 39° |
| 2026-04-24 23:13 | 50.50072 | 7.64254 | 8848 ft | 232 kts | 7° |
| 2026-04-24 23:13 | 50.51691 | 7.64128 | 8606 ft | 239 kts | 345° |
| 2026-04-24 23:13 | 50.53217 | 7.63020 | 8355 ft | 244 kts | 321° |
| 2026-04-24 23:13 | 50.54461 | 7.61250 | 8110 ft | 240 kts | 317° |
| 2026-04-24 23:14 | 50.55680 | 7.59467 | 7730 ft | 239 kts | 317° |
| 2026-04-24 23:14 | 50.56867 | 7.57738 | 7424 ft | 234 kts | 318° |
| 2026-04-24 23:14 | 50.58053 | 7.56030 | 7128 ft | 228 kts | 319° |
| 2026-04-24 23:14 | 50.59216 | 7.54369 | 6832 ft | 223 kts | 319° |
| 2026-04-24 23:15 | 50.60358 | 7.52759 | 6554 ft | 217 kts | 319° |
| 2026-04-24 23:15 | 50.61466 | 7.51189 | 6272 ft | 212 kts | 319° |
| 2026-04-24 23:15 | 50.62552 | 7.49639 | 6011 ft | 210 kts | 319° |
| 2026-04-24 23:15 | 50.63648 | 7.48069 | 5623 ft | 217 kts | 319° |
| 2026-04-24 23:16 | 50.64761 | 7.46473 | 5305 ft | 214 kts | 319° |
| 2026-04-24 23:16 | 50.65848 | 7.44913 | 5019 ft | 209 kts | 319° |
| 2026-04-24 23:16 | 50.66906 | 7.43393 | 4726 ft | 203 kts | 319° |
| 2026-04-24 23:16 | 50.67922 | 7.41935 | 4536 ft | 193 kts | 319° |
| 2026-04-24 23:17 | 50.68897 | 7.40534 | 4263 ft | 188 kts | 319° |
| 2026-04-24 23:17 | 50.69842 | 7.39176 | 4115 ft | 181 kts | 319° |
| 2026-04-24 23:17 | 50.70786 | 7.37820 | 4036 ft | 185 kts | 319° |
| 2026-04-24 23:17 | 50.71735 | 7.36455 | 3835 ft | 185 kts | 319° |
| 2026-04-24 23:18 | 50.72674 | 7.35104 | 3610 ft | 178 kts | 318° |
| 2026-04-24 23:18 | 50.73543 | 7.33851 | 3444 ft | 160 kts | 318° |
| 2026-04-24 23:18 | 50.74351 | 7.32688 | 3204 ft | 157 kts | 318° |
| 2026-04-24 23:18 | 50.75132 | 7.31562 | 3070 ft | 145 kts | 318° |
| 2026-04-24 23:19 | 50.75861 | 7.30511 | 2936 ft | 140 kts | 318° |
| 2026-04-24 23:19 | 50.76580 | 7.29475 | 2764 ft | 141 kts | 318° |
| 2026-04-24 23:19 | 50.77311 | 7.28422 | 2574 ft | 143 kts | 318° |
| 2026-04-24 23:19 | 50.78045 | 7.27362 | 2385 ft | 142 kts | 318° |
| 2026-04-24 23:20 | 50.78773 | 7.26308 | 2178 ft | 142 kts | 319° |
| 2026-04-24 23:20 | 50.79499 | 7.25262 | 1985 ft | 141 kts | 319° |
| 2026-04-24 23:20 | 50.80224 | 7.24217 | 1790 ft | 141 kts | 319° |
| 2026-04-24 23:20 | 50.80952 | 7.23165 | 1602 ft | 142 kts | 319° |
| 2026-04-24 23:21 | 50.81680 | 7.22114 | 1399 ft | 142 kts | 319° |
| 2026-04-24 23:21 | 50.82405 | 7.21065 | 1189 ft | 141 kts | 318° |
| 2026-04-24 23:21 | 50.83109 | 7.20046 | 1006 ft | 141 kts | 318° |
| 2026-04-24 23:21 | 50.83852 | 7.18971 | 802 ft | 141 kts | 317° |
| 2026-04-24 23:22 | 50.84564 | 7.17934 | 605 ft | 136 kts | 317° |
| 2026-04-24 23:22 | 50.85248 | 7.16932 | 408 ft | 132 kts | 319° |
| 2026-04-24 23:22 | 50.85888 | 7.16019 | 311 ft | 123 kts | 319° |
| 2026-04-24 23:22 | 50.86458 | 7.15204 | 286 ft | 91 kts | 317° |
| 2026-04-24 23:23 | 50.86824 | 7.14676 | 269 ft | 63 kts | 317° |
| 2026-04-24 23:23 | 50.87130 | 7.14236 | 254 ft | 46 kts | 318° |
| 2026-04-24 23:23 | 50.87285 | 7.13937 | 247 ft | 27 kts | 293° |
| 2026-04-24 23:23 | 50.87314 | 7.13761 | 243 ft | 15 kts | 280° |
| 2026-04-24 23:24 | 50.87331 | 7.13596 | 240 ft | 13 kts | 279° |
| 2026-04-24 23:24 | 50.87349 | 7.13440 | 237 ft | 16 kts | 279° |
| 2026-04-24 23:24 | 50.87379 | 7.13276 | 237 ft | 16 kts | 302° |
| 2026-04-24 23:24 | 50.87455 | 7.13153 | 237 ft | 16 kts | 317° |
| 2026-04-24 23:25 | 50.87535 | 7.13035 | 237 ft | 16 kts | 317° |
| 2026-04-24 23:25 | 50.87610 | 7.12926 | 237 ft | 9 kts | 318° |
| 2026-04-24 23:25 | 50.87628 | 7.12840 | 237 ft | 9 kts | 252° |
| 2026-04-24 23:25 | 50.87588 | 7.12771 | 237 ft | 0 kts | 225° |